PWSweather.com
Personal Weather Stations
Station Observations
2450ARBOR
Round Rock, TX 78681

Round Rock, TX 78681

Lat: 30.535239, Lon: -97.728137

Elevation: 800

Station Type:

High Low Average
Temperature 46.0°F7.8°C 35.8°F2.1°C 42.2°F5.7°C
Dew Point 33.7°F0.9°C 29.7°F-1.3°C 32.1°F0.1°C
Winds 4.7 mph 7.6 kmh Calm Calm 1.0 mph SSW1.6 kmh SSW
Wind Gusts 4.7 mph7.6 kmh -- 1.0 mph1.6 kmh
Humidity 84% 56% 68%
Pressure 29.61 in1002.7 mb 29.50 in999.0 mb -
Precipitation 0.11 in2.8 mm - -
Hour Temp Dew Point Humidity Winds Wind Gusts Pressure Precip Precip Rate Daily Precip Total
02:35 PM 43.5°F6.4°C 31.8°F-0.1°C 63% 1.7 mph SW2.7 kmh SW 1.7 mph2.7 kmh 29.52 in999.7 mb 0.11 in2.8 mm 0.19 in4.8 mm 0.11 in2.8 mm
02:36 PM 43.5°F6.4°C 31.8°F-0.1°C 63% 2.2 mph S3.5 kmh S 2.2 mph3.5 kmh 29.52 in999.7 mb 0.11 in2.8 mm 0.00 in0.0 mm 0.11 in2.8 mm
02:37 PM 43.7°F6.5°C 31.9°F-0.1°C 63% 3.2 mph W5.1 kmh W 3.2 mph5.1 kmh 29.52 in999.7 mb 0.11 in2.8 mm 0.00 in0.0 mm 0.11 in2.8 mm
02:38 PM 43.7°F6.5°C 31.5°F-0.3°C 62% 3.2 mph ESE5.1 kmh ESE 3.2 mph5.1 kmh 29.52 in999.7 mb 0.11 in2.8 mm 0.00 in0.0 mm 0.11 in2.8 mm
02:39 PM 43.7°F6.5°C 31.1°F-0.5°C 61% 2.7 mph W4.3 kmh W 3.2 mph5.1 kmh 29.52 in999.7 mb 0.11 in2.8 mm 0.00 in0.0 mm 0.11 in2.8 mm
02:40 PM 43.7°F6.5°C 31.5°F-0.3°C 62% 2.7 mph WSW4.3 kmh WSW 3.7 mph6.0 kmh 29.52 in999.7 mb 0.11 in2.8 mm 0.00 in0.0 mm 0.11 in2.8 mm
02:41 PM 43.7°F6.5°C 31.5°F-0.3°C 62% 2.7 mph S4.3 kmh S 3.7 mph6.0 kmh 29.52 in999.7 mb 0.11 in2.8 mm 0.00 in0.0 mm 0.11 in2.8 mm
02:42 PM 43.7°F6.5°C 31.5°F-0.3°C 62% 2.2 mph SW3.5 kmh SW 3.7 mph6.0 kmh 29.52 in999.7 mb 0.11 in2.8 mm 0.00 in0.0 mm 0.11 in2.8 mm
02:43 PM 43.7°F6.5°C 31.5°F-0.3°C 62% 1.7 mph SSE2.7 kmh SSE 3.7 mph6.0 kmh 29.52 in999.7 mb 0.11 in2.8 mm 0.00 in0.0 mm 0.11 in2.8 mm
02:44 PM 43.7°F6.5°C 31.5°F-0.3°C 62% 2.2 mph S3.5 kmh S 3.7 mph6.0 kmh 29.52 in999.7 mb 0.11 in2.8 mm 0.00 in0.0 mm 0.11 in2.8 mm
02:45 PM 43.7°F6.5°C 31.1°F-0.5°C 61% 2.2 mph ENE3.5 kmh ENE 3.7 mph6.0 kmh 29.52 in999.7 mb 0.11 in2.8 mm 0.00 in0.0 mm 0.11 in2.8 mm
02:46 PM 43.7°F6.5°C 31.1°F-0.5°C 61% 1.1 mph NW1.8 kmh NW 3.7 mph6.0 kmh 29.52 in999.7 mb 0.11 in2.8 mm 0.00 in0.0 mm 0.11 in2.8 mm
02:47 PM 43.7°F6.5°C 31.5°F-0.3°C 62% 2.2 mph SW3.5 kmh SW 3.7 mph6.0 kmh 29.52 in999.7 mb 0.11 in2.8 mm 0.00 in0.0 mm 0.11 in2.8 mm
02:48 PM 43.7°F6.5°C 31.5°F-0.3°C 62% 2.2 mph SW3.5 kmh SW 3.7 mph6.0 kmh 29.52 in999.7 mb 0.11 in2.8 mm 0.00 in0.0 mm 0.11 in2.8 mm
02:49 PM 43.7°F6.5°C 31.5°F-0.3°C 62% 1.7 mph ESE2.7 kmh ESE 3.7 mph6.0 kmh 29.52 in999.7 mb 0.11 in2.8 mm 0.00 in0.0 mm 0.11 in2.8 mm
02:50 PM 43.7°F6.5°C 31.5°F-0.3°C 62% 1.7 mph S2.7 kmh S 3.2 mph5.1 kmh 29.52 in999.7 mb 0.11 in2.8 mm 0.00 in0.0 mm 0.11 in2.8 mm
02:51 PM 43.7°F6.5°C 31.5°F-0.3°C 62% 1.1 mph SW1.8 kmh SW 3.2 mph5.1 kmh 29.52 in999.7 mb 0.11 in2.8 mm 0.00 in0.0 mm 0.11 in2.8 mm
02:52 PM 43.9°F6.6°C 32.1°F0.1°C 63% Calm Calm 3.2 mph5.1 kmh 29.52 in999.7 mb 0.11 in2.8 mm 0.00 in0.0 mm 0.11 in2.8 mm
02:53 PM 43.9°F6.6°C 31.7°F-0.2°C 62% 2.2 mph N3.5 kmh N 3.2 mph5.1 kmh 29.52 in999.7 mb 0.11 in2.8 mm 0.00 in0.0 mm 0.11 in2.8 mm
02:54 PM 43.9°F6.6°C 31.3°F-0.4°C 61% 2.2 mph SSE3.5 kmh SSE 3.2 mph5.1 kmh 29.52 in999.7 mb 0.11 in2.8 mm 0.00 in0.0 mm 0.11 in2.8 mm
02:55 PM 43.9°F6.6°C 31.7°F-0.2°C 62% 1.7 mph SW2.7 kmh SW 3.7 mph6.0 kmh 29.52 in999.7 mb 0.11 in2.8 mm 0.00 in0.0 mm 0.11 in2.8 mm
02:56 PM 43.9°F6.6°C 31.7°F-0.2°C 62% 3.2 mph E5.1 kmh E 3.7 mph6.0 kmh 29.52 in999.7 mb 0.11 in2.8 mm 0.00 in0.0 mm 0.11 in2.8 mm
02:57 PM 44.1°F6.7°C 31.9°F-0.1°C 62% 1.7 mph S2.7 kmh S 3.7 mph6.0 kmh 29.52 in999.7 mb 0.11 in2.8 mm 0.00 in0.0 mm 0.11 in2.8 mm
02:58 PM 44.2°F6.8°C 32.0°F0.0°C 62% 1.7 mph WSW2.7 kmh WSW 3.7 mph6.0 kmh 29.50 in999.0 mb 0.11 in2.8 mm 0.00 in0.0 mm 0.11 in2.8 mm
02:59 PM 44.4°F6.9°C 32.2°F0.1°C 62% 2.2 mph SW3.5 kmh SW 3.7 mph6.0 kmh 29.50 in999.0 mb 0.11 in2.8 mm 0.00 in0.0 mm 0.11 in2.8 mm
03:00 PM 44.8°F7.1°C 33.0°F0.6°C 63% 1.7 mph WSW2.7 kmh WSW 3.7 mph6.0 kmh 29.50 in999.0 mb 0.11 in2.8 mm 0.00 in0.0 mm 0.11 in2.8 mm
03:01 PM 45.0°F7.2°C 33.2°F0.7°C 63% 1.7 mph WSW2.7 kmh WSW 3.7 mph6.0 kmh 29.50 in999.0 mb 0.11 in2.8 mm 0.00 in0.0 mm 0.11 in2.8 mm
03:02 PM 45.1°F7.3°C 33.3°F0.7°C 63% Calm Calm 3.7 mph6.0 kmh 29.50 in999.0 mb 0.11 in2.8 mm 0.00 in0.0 mm 0.11 in2.8 mm
03:03 PM 45.3°F7.4°C 33.5°F0.8°C 63% 1.7 mph SSW2.7 kmh SSW 3.7 mph6.0 kmh 29.50 in999.0 mb 0.11 in2.8 mm 0.00 in0.0 mm 0.11 in2.8 mm
03:04 PM 45.3°F7.4°C 33.1°F0.6°C 62% 1.7 mph NW2.7 kmh NW 3.7 mph6.0 kmh 29.50 in999.0 mb 0.11 in2.8 mm 0.00 in0.0 mm 0.11 in2.8 mm
03:05 PM 45.3°F7.4°C 32.7°F0.4°C 61% 1.7 mph SSW2.7 kmh SSW 3.2 mph5.1 kmh 29.50 in999.0 mb 0.11 in2.8 mm 0.00 in0.0 mm 0.11 in2.8 mm
03:06 PM 45.3°F7.4°C 32.2°F0.1°C 60% 2.2 mph S3.5 kmh S 3.2 mph5.1 kmh 29.50 in999.0 mb 0.11 in2.8 mm 0.00 in0.0 mm 0.11 in2.8 mm
03:07 PM 45.3°F7.4°C 31.8°F-0.1°C 59% 3.2 mph SSW5.1 kmh SSW 3.2 mph5.1 kmh 29.50 in999.0 mb 0.11 in2.8 mm 0.00 in0.0 mm 0.11 in2.8 mm
03:08 PM 45.3°F7.4°C 31.8°F-0.1°C 59% 1.7 mph S2.7 kmh S 3.2 mph5.1 kmh 29.50 in999.0 mb 0.11 in2.8 mm 0.00 in0.0 mm 0.11 in2.8 mm
03:09 PM 45.3°F7.4°C 31.8°F-0.1°C 59% 1.1 mph SW1.8 kmh SW 3.2 mph5.1 kmh 29.51 in999.3 mb 0.11 in2.8 mm 0.00 in0.0 mm 0.11 in2.8 mm
03:10 PM 45.3°F7.4°C 31.0°F-0.6°C 57% 1.1 mph SW1.8 kmh SW 3.2 mph5.1 kmh 29.51 in999.3 mb 0.11 in2.8 mm 0.00 in0.0 mm 0.11 in2.8 mm
03:11 PM 45.3°F7.4°C 31.4°F-0.3°C 58% 1.7 mph SW2.7 kmh SW 3.2 mph5.1 kmh 29.51 in999.3 mb 0.11 in2.8 mm 0.00 in0.0 mm 0.11 in2.8 mm
03:12 PM 45.3°F7.4°C 31.4°F-0.3°C 58% 1.7 mph SSW2.7 kmh SSW 3.2 mph5.1 kmh 29.51 in999.3 mb 0.11 in2.8 mm 0.00 in0.0 mm 0.11 in2.8 mm
03:13 PM 45.3°F7.4°C 31.4°F-0.3°C 58% 2.2 mph ESE3.5 kmh ESE 3.2 mph5.1 kmh 29.51 in999.3 mb 0.11 in2.8 mm 0.00 in0.0 mm 0.11 in2.8 mm
03:14 PM 45.5°F7.5°C 32.0°F0.0°C 59% 3.2 mph SSW5.1 kmh SSW 3.2 mph5.1 kmh 29.51 in999.3 mb 0.11 in2.8 mm 0.00 in0.0 mm 0.11 in2.8 mm
03:15 PM 45.5°F7.5°C 31.6°F-0.2°C 58% 1.7 mph SSW2.7 kmh SSW 3.2 mph5.1 kmh 29.51 in999.3 mb 0.11 in2.8 mm 0.00 in0.0 mm 0.11 in2.8 mm
03:16 PM 45.5°F7.5°C 31.6°F-0.2°C 58% 2.2 mph W3.5 kmh W 3.2 mph5.1 kmh 29.51 in999.3 mb 0.11 in2.8 mm 0.00 in0.0 mm 0.11 in2.8 mm
03:17 PM 45.5°F7.5°C 31.6°F-0.2°C 58% 3.2 mph W5.1 kmh W 3.2 mph5.1 kmh 29.51 in999.3 mb 0.11 in2.8 mm 0.00 in0.0 mm 0.11 in2.8 mm
03:18 PM 45.5°F7.5°C 31.6°F-0.2°C 58% 3.7 mph SSW6.0 kmh SSW 4.7 mph7.6 kmh 29.51 in999.3 mb 0.11 in2.8 mm 0.00 in0.0 mm 0.11 in2.8 mm
03:19 PM 45.3°F7.4°C 31.0°F-0.6°C 57% 3.2 mph E5.1 kmh E 4.7 mph7.6 kmh 29.51 in999.3 mb 0.11 in2.8 mm 0.00 in0.0 mm 0.11 in2.8 mm
03:20 PM 45.3°F7.4°C 31.0°F-0.6°C 57% 2.2 mph SSW3.5 kmh SSW 4.7 mph7.6 kmh 29.51 in999.3 mb 0.11 in2.8 mm 0.00 in0.0 mm 0.11 in2.8 mm
03:21 PM 45.3°F7.4°C 31.0°F-0.6°C 57% 2.2 mph NNW3.5 kmh NNW 4.7 mph7.6 kmh 29.52 in999.7 mb 0.11 in2.8 mm 0.00 in0.0 mm 0.11 in2.8 mm
03:22 PM 45.3°F7.4°C 31.0°F-0.6°C 57% 2.2 mph WSW3.5 kmh WSW 4.7 mph7.6 kmh 29.52 in999.7 mb 0.11 in2.8 mm 0.00 in0.0 mm 0.11 in2.8 mm
03:23 PM 45.3°F7.4°C 30.5°F-0.8°C 56% 2.2 mph WSW3.5 kmh WSW 4.7 mph7.6 kmh 29.52 in999.7 mb 0.11 in2.8 mm 0.00 in0.0 mm 0.11 in2.8 mm
03:24 PM 45.3°F7.4°C 30.5°F-0.8°C 56% 2.7 mph NW4.3 kmh NW 4.7 mph7.6 kmh 29.52 in999.7 mb 0.11 in2.8 mm 0.00 in0.0 mm 0.11 in2.8 mm
03:25 PM 45.3°F7.4°C 30.5°F-0.8°C 56% 2.2 mph SSW3.5 kmh SSW 4.7 mph7.6 kmh 29.52 in999.7 mb 0.11 in2.8 mm 0.00 in0.0 mm 0.11 in2.8 mm
03:26 PM 45.3°F7.4°C 31.0°F-0.6°C 57% 3.2 mph W5.1 kmh W 4.7 mph7.6 kmh 29.52 in999.7 mb 0.11 in2.8 mm 0.00 in0.0 mm 0.11 in2.8 mm
03:27 PM 45.3°F7.4°C 31.0°F-0.6°C 57% 2.2 mph S3.5 kmh S 4.7 mph7.6 kmh 29.52 in999.7 mb 0.11 in2.8 mm 0.00 in0.0 mm 0.11 in2.8 mm
03:28 PM 45.1°F7.3°C 30.8°F-0.7°C 57% 1.1 mph ESE1.8 kmh ESE 4.7 mph7.6 kmh 29.52 in999.7 mb 0.11 in2.8 mm 0.00 in0.0 mm 0.11 in2.8 mm
03:29 PM 45.3°F7.4°C 31.4°F-0.3°C 58% 1.7 mph S2.7 kmh S 4.7 mph7.6 kmh 29.52 in999.7 mb 0.11 in2.8 mm 0.00 in0.0 mm 0.11 in2.8 mm
03:30 PM 45.3°F7.4°C 31.4°F-0.3°C 58% 2.2 mph SE3.5 kmh SE 4.7 mph7.6 kmh 29.52 in999.7 mb 0.11 in2.8 mm 0.00 in0.0 mm 0.11 in2.8 mm
03:31 PM 45.3°F7.4°C 31.0°F-0.6°C 57% 2.2 mph S3.5 kmh S 4.7 mph7.6 kmh 29.52 in999.7 mb 0.11 in2.8 mm 0.00 in0.0 mm 0.11 in2.8 mm
03:32 PM 45.3°F7.4°C 31.0°F-0.6°C 57% 2.2 mph SW3.5 kmh SW 4.7 mph7.6 kmh 29.52 in999.7 mb 0.11 in2.8 mm 0.00 in0.0 mm 0.11 in2.8 mm
03:33 PM 45.3°F7.4°C 31.0°F-0.6°C 57% 2.2 mph W3.5 kmh W 4.7 mph7.6 kmh 29.52 in999.7 mb 0.11 in2.8 mm 0.00 in0.0 mm 0.11 in2.8 mm
03:34 PM 45.5°F7.5°C 31.6°F-0.2°C 58% 1.7 mph ENE2.7 kmh ENE 3.7 mph6.0 kmh 29.52 in999.7 mb 0.11 in2.8 mm 0.00 in0.0 mm 0.11 in2.8 mm
03:35 PM 45.5°F7.5°C 31.6°F-0.2°C 58% 1.7 mph SSW2.7 kmh SSW 3.7 mph6.0 kmh 29.52 in999.7 mb 0.11 in2.8 mm 0.00 in0.0 mm 0.11 in2.8 mm
03:36 PM 45.7°F7.6°C 31.4°F-0.3°C 57% 1.7 mph SSE2.7 kmh SSE 3.7 mph6.0 kmh 29.52 in999.7 mb 0.00 in0.0 mm 0.00 in0.0 mm 0.11 in2.8 mm
03:37 PM 45.7°F7.6°C 30.9°F-0.6°C 56% 1.1 mph S1.8 kmh S 3.7 mph6.0 kmh 29.52 in999.7 mb 0.00 in0.0 mm 0.00 in0.0 mm 0.11 in2.8 mm
03:38 PM 45.7°F7.6°C 31.4°F-0.3°C 57% 1.1 mph S1.8 kmh S 3.7 mph6.0 kmh 29.52 in999.7 mb 0.00 in0.0 mm 0.00 in0.0 mm 0.11 in2.8 mm
03:39 PM 45.7°F7.6°C 31.4°F-0.3°C 57% 2.2 mph SSW3.5 kmh SSW 3.7 mph6.0 kmh 29.52 in999.7 mb 0.00 in0.0 mm 0.00 in0.0 mm 0.11 in2.8 mm
03:40 PM 45.7°F7.6°C 31.8°F-0.1°C 58% Calm Calm 3.7 mph6.0 kmh 29.52 in999.7 mb 0.00 in0.0 mm 0.00 in0.0 mm 0.11 in2.8 mm
03:41 PM 45.7°F7.6°C 31.8°F-0.1°C 58% 2.2 mph NNW3.5 kmh NNW 3.7 mph6.0 kmh 29.52 in999.7 mb 0.00 in0.0 mm 0.00 in0.0 mm 0.11 in2.8 mm
03:42 PM 45.7°F7.6°C 31.8°F-0.1°C 58% 2.7 mph SW4.3 kmh SW 3.7 mph6.0 kmh 29.52 in999.7 mb 0.00 in0.0 mm 0.00 in0.0 mm 0.11 in2.8 mm
03:43 PM 45.7°F7.6°C 31.8°F-0.1°C 58% 1.7 mph N2.7 kmh N 3.7 mph6.0 kmh 29.52 in999.7 mb 0.00 in0.0 mm 0.00 in0.0 mm 0.11 in2.8 mm
03:44 PM 45.7°F7.6°C 31.8°F-0.1°C 58% 1.1 mph NE1.8 kmh NE 3.7 mph6.0 kmh 29.52 in999.7 mb 0.00 in0.0 mm 0.00 in0.0 mm 0.11 in2.8 mm
03:45 PM 45.9°F7.7°C 32.0°F0.0°C 58% 3.2 mph E5.1 kmh E 3.2 mph5.1 kmh 29.51 in999.3 mb 0.00 in0.0 mm 0.00 in0.0 mm 0.11 in2.8 mm
03:46 PM 45.9°F7.7°C 31.5°F-0.3°C 57% 2.2 mph WSW3.5 kmh WSW 3.2 mph5.1 kmh 29.51 in999.3 mb 0.00 in0.0 mm 0.00 in0.0 mm 0.11 in2.8 mm
03:47 PM 45.9°F7.7°C 31.5°F-0.3°C 57% 1.7 mph SSW2.7 kmh SSW 3.2 mph5.1 kmh 29.51 in999.3 mb 0.00 in0.0 mm 0.00 in0.0 mm 0.11 in2.8 mm
03:48 PM 45.9°F7.7°C 31.5°F-0.3°C 57% 1.7 mph SW2.7 kmh SW 3.2 mph5.1 kmh 29.51 in999.3 mb 0.00 in0.0 mm 0.00 in0.0 mm 0.11 in2.8 mm
03:49 PM 45.9°F7.7°C 31.5°F-0.3°C 57% 1.1 mph S1.8 kmh S 3.2 mph5.1 kmh 29.51 in999.3 mb 0.00 in0.0 mm 0.00 in0.0 mm 0.11 in2.8 mm
03:50 PM 45.9°F7.7°C 31.1°F-0.5°C 56% 1.7 mph SSW2.7 kmh SSW 3.2 mph5.1 kmh 29.51 in999.3 mb 0.00 in0.0 mm 0.00 in0.0 mm 0.11 in2.8 mm
03:51 PM 45.9°F7.7°C 31.1°F-0.5°C 56% 2.7 mph ESE4.3 kmh ESE 3.2 mph5.1 kmh 29.51 in999.3 mb 0.00 in0.0 mm 0.00 in0.0 mm 0.11 in2.8 mm
03:52 PM 45.9°F7.7°C 31.5°F-0.3°C 57% 1.7 mph W2.7 kmh W 3.2 mph5.1 kmh 29.51 in999.3 mb 0.00 in0.0 mm 0.00 in0.0 mm 0.11 in2.8 mm
03:53 PM 45.9°F7.7°C 31.5°F-0.3°C 57% 1.1 mph SSE1.8 kmh SSE 3.2 mph5.1 kmh 29.51 in999.3 mb 0.00 in0.0 mm 0.00 in0.0 mm 0.11 in2.8 mm
03:54 PM 45.9°F7.7°C 31.1°F-0.5°C 56% 1.7 mph N2.7 kmh N 3.2 mph5.1 kmh 29.51 in999.3 mb 0.00 in0.0 mm 0.00 in0.0 mm 0.11 in2.8 mm
03:55 PM 45.9°F7.7°C 31.5°F-0.3°C 57% 2.7 mph SSW4.3 kmh SSW 3.2 mph5.1 kmh 29.51 in999.3 mb 0.00 in0.0 mm 0.00 in0.0 mm 0.11 in2.8 mm
03:56 PM 45.9°F7.7°C 31.5°F-0.3°C 57% 1.7 mph NNE2.7 kmh NNE 2.7 mph4.3 kmh 29.51 in999.3 mb 0.00 in0.0 mm 0.00 in0.0 mm 0.11 in2.8 mm
03:57 PM 45.7°F7.6°C 30.9°F-0.6°C 56% 2.7 mph W4.3 kmh W 2.7 mph4.3 kmh 29.52 in999.7 mb 0.00 in0.0 mm 0.00 in0.0 mm 0.11 in2.8 mm
03:58 PM 45.7°F7.6°C 30.9°F-0.6°C 56% 1.1 mph SSW1.8 kmh SSW 2.7 mph4.3 kmh 29.52 in999.7 mb 0.00 in0.0 mm 0.00 in0.0 mm 0.11 in2.8 mm
03:59 PM 45.9°F7.7°C 31.1°F-0.5°C 56% Calm Calm 2.7 mph4.3 kmh 29.52 in999.7 mb 0.00 in0.0 mm 0.00 in0.0 mm 0.11 in2.8 mm
04:00 PM 45.9°F7.7°C 31.1°F-0.5°C 56% 1.1 mph E1.8 kmh E 2.7 mph4.3 kmh 29.52 in999.7 mb 0.00 in0.0 mm 0.00 in0.0 mm 0.11 in2.8 mm
04:01 PM 45.9°F7.7°C 31.5°F-0.3°C 57% 1.7 mph WSW2.7 kmh WSW 2.7 mph4.3 kmh 29.52 in999.7 mb 0.00 in0.0 mm 0.00 in0.0 mm 0.11 in2.8 mm
04:02 PM 45.9°F7.7°C 32.0°F0.0°C 58% 2.2 mph ESE3.5 kmh ESE 2.7 mph4.3 kmh 29.52 in999.7 mb 0.00 in0.0 mm 0.00 in0.0 mm 0.11 in2.8 mm
04:03 PM 45.7°F7.6°C 31.8°F-0.1°C 58% 3.2 mph W5.1 kmh W 3.2 mph5.1 kmh 29.52 in999.7 mb 0.00 in0.0 mm 0.00 in0.0 mm 0.11 in2.8 mm
04:04 PM 45.7°F7.6°C 31.4°F-0.3°C 57% 2.7 mph W4.3 kmh W 3.2 mph5.1 kmh 29.52 in999.7 mb 0.00 in0.0 mm 0.00 in0.0 mm 0.11 in2.8 mm
04:05 PM 45.7°F7.6°C 31.4°F-0.3°C 57% 1.7 mph SSW2.7 kmh SSW 3.2 mph5.1 kmh 29.52 in999.7 mb 0.00 in0.0 mm 0.00 in0.0 mm 0.11 in2.8 mm
04:06 PM 45.7°F7.6°C 30.9°F-0.6°C 56% 2.7 mph SSW4.3 kmh SSW 3.2 mph5.1 kmh 29.52 in999.7 mb 0.00 in0.0 mm 0.00 in0.0 mm 0.11 in2.8 mm
04:07 PM 45.5°F7.5°C 30.7°F-0.7°C 56% Calm Calm 4.2 mph6.8 kmh 29.52 in999.7 mb 0.00 in0.0 mm 0.00 in0.0 mm 0.11 in2.8 mm
04:08 PM 45.5°F7.5°C 30.7°F-0.7°C 56% 2.7 mph S4.3 kmh S 4.2 mph6.8 kmh 29.52 in999.7 mb 0.00 in0.0 mm 0.00 in0.0 mm 0.11 in2.8 mm
04:09 PM 45.5°F7.5°C 31.2°F-0.4°C 57% 2.2 mph SSW3.5 kmh SSW 4.2 mph6.8 kmh 29.52 in999.7 mb 0.00 in0.0 mm 0.00 in0.0 mm 0.11 in2.8 mm
04:10 PM 45.5°F7.5°C 31.2°F-0.4°C 57% 1.7 mph SW2.7 kmh SW 4.2 mph6.8 kmh 29.52 in999.7 mb 0.00 in0.0 mm 0.00 in0.0 mm 0.11 in2.8 mm
04:11 PM 45.5°F7.5°C 31.2°F-0.4°C 57% 1.7 mph SW2.7 kmh SW 4.2 mph6.8 kmh 29.52 in999.7 mb 0.00 in0.0 mm 0.00 in0.0 mm 0.11 in2.8 mm
04:12 PM 45.5°F7.5°C 31.2°F-0.4°C 57% 2.2 mph SSW3.5 kmh SSW 4.2 mph6.8 kmh 29.52 in999.7 mb 0.00 in0.0 mm 0.00 in0.0 mm 0.11 in2.8 mm
04:13 PM 45.5°F7.5°C 31.2°F-0.4°C 57% 2.2 mph SSW3.5 kmh SSW 4.2 mph6.8 kmh 29.52 in999.7 mb 0.00 in0.0 mm 0.00 in0.0 mm 0.11 in2.8 mm
04:14 PM 45.3°F7.4°C 31.0°F-0.6°C 57% 1.7 mph S2.7 kmh S 4.2 mph6.8 kmh 29.52 in999.7 mb 0.00 in0.0 mm 0.00 in0.0 mm 0.11 in2.8 mm
04:15 PM 45.3°F7.4°C 31.0°F-0.6°C 57% 2.2 mph NE3.5 kmh NE 4.2 mph6.8 kmh 29.52 in999.7 mb 0.00 in0.0 mm 0.00 in0.0 mm 0.11 in2.8 mm
04:16 PM 45.3°F7.4°C 31.0°F-0.6°C 57% 2.7 mph SSW4.3 kmh SSW 4.2 mph6.8 kmh 29.52 in999.7 mb 0.00 in0.0 mm 0.00 in0.0 mm 0.11 in2.8 mm
04:17 PM 45.1°F7.3°C 30.4°F-0.9°C 56% 1.7 mph SSW2.7 kmh SSW 3.2 mph5.1 kmh 29.52 in999.7 mb 0.00 in0.0 mm 0.00 in0.0 mm 0.11 in2.8 mm
04:18 PM 45.1°F7.3°C 30.8°F-0.7°C 57% Calm Calm 3.2 mph5.1 kmh 29.52 in999.7 mb 0.00 in0.0 mm 0.00 in0.0 mm 0.11 in2.8 mm
04:19 PM 45.1°F7.3°C 30.8°F-0.7°C 57% 2.2 mph S3.5 kmh S 3.2 mph5.1 kmh 29.52 in999.7 mb 0.00 in0.0 mm 0.00 in0.0 mm 0.11 in2.8 mm
04:20 PM 45.1°F7.3°C 30.8°F-0.7°C 57% 2.2 mph W3.5 kmh W 3.2 mph5.1 kmh 29.52 in999.7 mb 0.00 in0.0 mm 0.00 in0.0 mm 0.11 in2.8 mm
04:21 PM 45.1°F7.3°C 30.8°F-0.7°C 57% 1.7 mph WSW2.7 kmh WSW 3.2 mph5.1 kmh 29.52 in999.7 mb 0.00 in0.0 mm 0.00 in0.0 mm 0.11 in2.8 mm
04:22 PM 45.0°F7.2°C 30.7°F-0.7°C 57% 1.7 mph NW2.7 kmh NW 3.2 mph5.1 kmh 29.52 in999.7 mb 0.00 in0.0 mm 0.00 in0.0 mm 0.11 in2.8 mm
04:23 PM 44.8°F7.1°C 30.5°F-0.8°C 57% 2.2 mph SSW3.5 kmh SSW 3.2 mph5.1 kmh 29.52 in999.7 mb 0.00 in0.0 mm 0.00 in0.0 mm 0.11 in2.8 mm
04:24 PM 44.8°F7.1°C 30.9°F-0.6°C 58% 2.7 mph N4.3 kmh N 3.2 mph5.1 kmh 29.52 in999.7 mb 0.00 in0.0 mm 0.00 in0.0 mm 0.11 in2.8 mm
04:25 PM 44.8°F7.1°C 30.9°F-0.6°C 58% 2.7 mph S4.3 kmh S 3.2 mph5.1 kmh 29.52 in999.7 mb 0.00 in0.0 mm 0.00 in0.0 mm 0.11 in2.8 mm
04:26 PM 44.8°F7.1°C 30.9°F-0.6°C 58% 1.7 mph WSW2.7 kmh WSW 3.2 mph5.1 kmh 29.52 in999.7 mb 0.00 in0.0 mm 0.00 in0.0 mm 0.11 in2.8 mm
04:27 PM 44.8°F7.1°C 30.9°F-0.6°C 58% 1.1 mph SSW1.8 kmh SSW 3.2 mph5.1 kmh 29.52 in999.7 mb 0.00 in0.0 mm 0.00 in0.0 mm 0.11 in2.8 mm
04:28 PM 44.8°F7.1°C 30.5°F-0.8°C 57% 1.7 mph WSW2.7 kmh WSW 3.2 mph5.1 kmh 29.52 in999.7 mb 0.00 in0.0 mm 0.00 in0.0 mm 0.11 in2.8 mm
04:29 PM 44.8°F7.1°C 30.5°F-0.8°C 57% 2.2 mph WSW3.5 kmh WSW 3.2 mph5.1 kmh 29.52 in999.7 mb 0.00 in0.0 mm 0.00 in0.0 mm 0.11 in2.8 mm
04:30 PM 44.6°F7.0°C 30.3°F-0.9°C 57% 2.2 mph S3.5 kmh S 3.2 mph5.1 kmh 29.52 in999.7 mb 0.00 in0.0 mm 0.00 in0.0 mm 0.11 in2.8 mm
04:31 PM 44.6°F7.0°C 29.9°F-1.2°C 56% 2.2 mph WNW3.5 kmh WNW 3.2 mph5.1 kmh 29.52 in999.7 mb 0.00 in0.0 mm 0.00 in0.0 mm 0.11 in2.8 mm
04:32 PM 44.4°F6.9°C 29.7°F-1.3°C 56% 2.2 mph ESE3.5 kmh ESE 3.2 mph5.1 kmh 29.52 in999.7 mb 0.00 in0.0 mm 0.00 in0.0 mm 0.11 in2.8 mm
04:33 PM 44.4°F6.9°C 30.1°F-1.1°C 57% 2.2 mph SSW3.5 kmh SSW 3.2 mph5.1 kmh 29.52 in999.7 mb 0.00 in0.0 mm 0.00 in0.0 mm 0.11 in2.8 mm
04:34 PM 44.4°F6.9°C 30.1°F-1.1°C 57% 3.2 mph W5.1 kmh W 3.2 mph5.1 kmh 29.52 in999.7 mb 0.00 in0.0 mm 0.00 in0.0 mm 0.11 in2.8 mm
04:35 PM 44.2°F6.8°C 29.9°F-1.2°C 57% 2.2 mph W3.5 kmh W 3.2 mph5.1 kmh 29.52 in999.7 mb 0.00 in0.0 mm 0.00 in0.0 mm 0.11 in2.8 mm
04:36 PM 44.2°F6.8°C 29.9°F-1.2°C 57% 2.2 mph S3.5 kmh S 3.2 mph5.1 kmh 29.52 in999.7 mb 0.00 in0.0 mm 0.00 in0.0 mm 0.11 in2.8 mm
04:37 PM 44.2°F6.8°C 30.4°F-0.9°C 58% 1.7 mph SSW2.7 kmh SSW 3.2 mph5.1 kmh 29.52 in999.7 mb 0.00 in0.0 mm 0.00 in0.0 mm 0.11 in2.8 mm
04:38 PM 44.2°F6.8°C 30.8°F-0.7°C 59% 3.7 mph SSW6.0 kmh SSW 3.7 mph6.0 kmh 29.52 in999.7 mb 0.00 in0.0 mm 0.00 in0.0 mm 0.11 in2.8 mm
04:39 PM 44.4°F6.9°C 30.6°F-0.8°C 58% 1.7 mph SW2.7 kmh SW 3.7 mph6.0 kmh 29.52 in999.7 mb 0.00 in0.0 mm 0.00 in0.0 mm 0.11 in2.8 mm
04:40 PM 44.4°F6.9°C 30.6°F-0.8°C 58% 1.7 mph SSW2.7 kmh SSW 3.7 mph6.0 kmh 29.52 in999.7 mb 0.00 in0.0 mm 0.00 in0.0 mm 0.11 in2.8 mm
04:41 PM 44.4°F6.9°C 31.0°F-0.6°C 59% 1.7 mph SW2.7 kmh SW 3.7 mph6.0 kmh 29.52 in999.7 mb 0.00 in0.0 mm 0.00 in0.0 mm 0.11 in2.8 mm
04:42 PM 44.4°F6.9°C 31.0°F-0.6°C 59% 1.1 mph ESE1.8 kmh ESE 3.7 mph6.0 kmh 29.52 in999.7 mb 0.00 in0.0 mm 0.00 in0.0 mm 0.11 in2.8 mm
04:43 PM 44.4°F6.9°C 31.0°F-0.6°C 59% 1.7 mph SSW2.7 kmh SSW 3.7 mph6.0 kmh 29.52 in999.7 mb 0.00 in0.0 mm 0.00 in0.0 mm 0.11 in2.8 mm
04:44 PM 44.6°F7.0°C 31.2°F-0.4°C 59% 2.2 mph S3.5 kmh S 3.7 mph6.0 kmh 29.52 in999.7 mb 0.00 in0.0 mm 0.00 in0.0 mm 0.11 in2.8 mm
04:45 PM 44.6°F7.0°C 30.7°F-0.7°C 58% 1.7 mph W2.7 kmh W 3.7 mph6.0 kmh 29.52 in999.7 mb 0.00 in0.0 mm 0.00 in0.0 mm 0.11 in2.8 mm
04:46 PM 44.6°F7.0°C 30.7°F-0.7°C 58% 1.1 mph WNW1.8 kmh WNW 3.7 mph6.0 kmh 29.52 in999.7 mb 0.00 in0.0 mm 0.00 in0.0 mm 0.11 in2.8 mm
04:47 PM 44.6°F7.0°C 30.7°F-0.7°C 58% 1.7 mph SW2.7 kmh SW 3.7 mph6.0 kmh 29.52 in999.7 mb 0.00 in0.0 mm 0.00 in0.0 mm 0.11 in2.8 mm
04:48 PM 44.6°F7.0°C 30.3°F-0.9°C 57% 3.2 mph SSE5.1 kmh SSE 3.7 mph6.0 kmh 29.52 in999.7 mb 0.00 in0.0 mm 0.00 in0.0 mm 0.11 in2.8 mm
04:49 PM 44.6°F7.0°C 30.3°F-0.9°C 57% 2.7 mph NNW4.3 kmh NNW 3.7 mph6.0 kmh 29.52 in999.7 mb 0.00 in0.0 mm 0.00 in0.0 mm 0.11 in2.8 mm
04:50 PM 44.6°F7.0°C 30.3°F-0.9°C 57% 2.2 mph S3.5 kmh S 3.7 mph6.0 kmh 29.52 in999.7 mb 0.00 in0.0 mm 0.00 in0.0 mm 0.11 in2.8 mm
04:51 PM 44.6°F7.0°C 30.3°F-0.9°C 57% 1.7 mph SW2.7 kmh SW 3.7 mph6.0 kmh 29.52 in999.7 mb 0.00 in0.0 mm 0.00 in0.0 mm 0.11 in2.8 mm
04:52 PM 44.8°F7.1°C 30.5°F-0.8°C 57% 1.7 mph S2.7 kmh S 3.7 mph6.0 kmh 29.52 in999.7 mb 0.00 in0.0 mm 0.00 in0.0 mm 0.11 in2.8 mm
04:53 PM 44.8°F7.1°C 30.5°F-0.8°C 57% 1.7 mph SW2.7 kmh SW 3.7 mph6.0 kmh 29.52 in999.7 mb 0.00 in0.0 mm 0.00 in0.0 mm 0.11 in2.8 mm
04:54 PM 44.8°F7.1°C 30.5°F-0.8°C 57% 1.1 mph SSW1.8 kmh SSW 3.7 mph6.0 kmh 29.52 in999.7 mb 0.00 in0.0 mm 0.00 in0.0 mm 0.11 in2.8 mm
04:55 PM 44.8°F7.1°C 30.5°F-0.8°C 57% Calm Calm 3.7 mph6.0 kmh 29.52 in999.7 mb 0.00 in0.0 mm 0.00 in0.0 mm 0.11 in2.8 mm
04:56 PM 45.0°F7.2°C 31.1°F-0.5°C 58% Calm Calm 3.7 mph6.0 kmh 29.52 in999.7 mb 0.00 in0.0 mm 0.00 in0.0 mm 0.11 in2.8 mm
04:57 PM 45.0°F7.2°C 31.1°F-0.5°C 58% Calm Calm 3.7 mph6.0 kmh 29.52 in999.7 mb 0.00 in0.0 mm 0.00 in0.0 mm 0.11 in2.8 mm
04:58 PM 45.1°F7.3°C 31.2°F-0.4°C 58% 2.2 mph SW3.5 kmh SW 3.2 mph5.1 kmh 29.52 in999.7 mb 0.00 in0.0 mm 0.00 in0.0 mm 0.11 in2.8 mm
04:59 PM 45.1°F7.3°C 31.2°F-0.4°C 58% 2.2 mph ESE3.5 kmh ESE 2.2 mph3.5 kmh 29.52 in999.7 mb 0.00 in0.0 mm 0.00 in0.0 mm 0.11 in2.8 mm
05:00 PM 45.1°F7.3°C 31.2°F-0.4°C 58% 1.7 mph NE2.7 kmh NE 2.2 mph3.5 kmh 29.52 in999.7 mb 0.00 in0.0 mm 0.00 in0.0 mm 0.11 in2.8 mm
05:01 PM 45.1°F7.3°C 31.2°F-0.4°C 58% 1.7 mph SSW2.7 kmh SSW 2.2 mph3.5 kmh 29.52 in999.7 mb 0.00 in0.0 mm 0.00 in0.0 mm 0.11 in2.8 mm
05:02 PM 45.3°F7.4°C 31.4°F-0.3°C 58% 1.7 mph W2.7 kmh W 3.2 mph5.1 kmh 29.52 in999.7 mb 0.00 in0.0 mm 0.00 in0.0 mm 0.11 in2.8 mm
05:03 PM 45.3°F7.4°C 31.4°F-0.3°C 58% 2.7 mph WSW4.3 kmh WSW 3.2 mph5.1 kmh 29.52 in999.7 mb 0.00 in0.0 mm 0.00 in0.0 mm 0.11 in2.8 mm
05:04 PM 45.3°F7.4°C 31.0°F-0.6°C 57% 2.7 mph S4.3 kmh S 3.2 mph5.1 kmh 29.52 in999.7 mb 0.00 in0.0 mm 0.00 in0.0 mm 0.11 in2.8 mm
05:05 PM 45.3°F7.4°C 31.0°F-0.6°C 57% 2.2 mph ESE3.5 kmh ESE 3.2 mph5.1 kmh 29.52 in999.7 mb 0.00 in0.0 mm 0.00 in0.0 mm 0.11 in2.8 mm
05:06 PM 45.3°F7.4°C 31.0°F-0.6°C 57% 2.2 mph ESE3.5 kmh ESE 3.2 mph5.1 kmh 29.52 in999.7 mb 0.00 in0.0 mm 0.00 in0.0 mm 0.11 in2.8 mm
05:07 PM 45.3°F7.4°C 31.0°F-0.6°C 57% 1.1 mph SSW1.8 kmh SSW 3.2 mph5.1 kmh 29.52 in999.7 mb 0.00 in0.0 mm 0.00 in0.0 mm 0.11 in2.8 mm
05:08 PM 45.3°F7.4°C 31.0°F-0.6°C 57% 2.2 mph SSW3.5 kmh SSW 3.2 mph5.1 kmh 29.52 in999.7 mb 0.00 in0.0 mm 0.00 in0.0 mm 0.11 in2.8 mm
05:09 PM 45.3°F7.4°C 31.0°F-0.6°C 57% 1.7 mph ESE2.7 kmh ESE 3.2 mph5.1 kmh 29.52 in999.7 mb 0.00 in0.0 mm 0.00 in0.0 mm 0.11 in2.8 mm
05:10 PM 45.3°F7.4°C 31.0°F-0.6°C 57% 1.1 mph SSW1.8 kmh SSW 3.2 mph5.1 kmh 29.52 in999.7 mb 0.00 in0.0 mm 0.00 in0.0 mm 0.11 in2.8 mm
05:11 PM 45.3°F7.4°C 31.0°F-0.6°C 57% 1.7 mph S2.7 kmh S 3.2 mph5.1 kmh 29.52 in999.7 mb 0.00 in0.0 mm 0.00 in0.0 mm 0.11 in2.8 mm
05:12 PM 45.3°F7.4°C 31.0°F-0.6°C 57% Calm Calm 2.7 mph4.3 kmh 29.52 in999.7 mb 0.00 in0.0 mm 0.00 in0.0 mm 0.11 in2.8 mm
05:13 PM 45.5°F7.5°C 31.6°F-0.2°C 58% 1.7 mph SSW2.7 kmh SSW 2.7 mph4.3 kmh 29.52 in999.7 mb 0.00 in0.0 mm 0.00 in0.0 mm 0.11 in2.8 mm
05:14 PM 45.5°F7.5°C 31.6°F-0.2°C 58% 1.7 mph S2.7 kmh S 2.7 mph4.3 kmh 29.52 in999.7 mb 0.00 in0.0 mm 0.00 in0.0 mm 0.11 in2.8 mm
05:15 PM 45.5°F7.5°C 31.6°F-0.2°C 58% 2.2 mph SW3.5 kmh SW 2.7 mph4.3 kmh 29.52 in999.7 mb 0.00 in0.0 mm 0.00 in0.0 mm 0.11 in2.8 mm
05:16 PM 45.7°F7.6°C 31.8°F-0.1°C 58% Calm Calm 2.7 mph4.3 kmh 29.52 in999.7 mb 0.00 in0.0 mm 0.00 in0.0 mm 0.11 in2.8 mm
05:17 PM 45.7°F7.6°C 31.8°F-0.1°C 58% 1.1 mph SW1.8 kmh SW 2.7 mph4.3 kmh 29.52 in999.7 mb 0.00 in0.0 mm 0.00 in0.0 mm 0.11 in2.8 mm
05:18 PM 45.9°F7.7°C 32.0°F0.0°C 58% 1.7 mph S2.7 kmh S 2.7 mph4.3 kmh 29.52 in999.7 mb 0.00 in0.0 mm 0.00 in0.0 mm 0.11 in2.8 mm
05:19 PM 45.9°F7.7°C 32.0°F0.0°C 58% 1.7 mph SSW2.7 kmh SSW 2.7 mph4.3 kmh 29.52 in999.7 mb 0.00 in0.0 mm 0.00 in0.0 mm 0.11 in2.8 mm
05:20 PM 45.9°F7.7°C 31.5°F-0.3°C 57% 1.1 mph SSW1.8 kmh SSW 2.7 mph4.3 kmh 29.52 in999.7 mb 0.00 in0.0 mm 0.00 in0.0 mm 0.11 in2.8 mm
05:21 PM 45.9°F7.7°C 31.5°F-0.3°C 57% 1.1 mph SW1.8 kmh SW 2.7 mph4.3 kmh 29.52 in999.7 mb 0.00 in0.0 mm 0.00 in0.0 mm 0.11 in2.8 mm
05:22 PM 45.9°F7.7°C 31.5°F-0.3°C 57% Calm Calm 2.7 mph4.3 kmh 29.52 in999.7 mb 0.00 in0.0 mm 0.00 in0.0 mm 0.11 in2.8 mm
05:23 PM 46.0°F7.8°C 32.1°F0.1°C 58% 1.1 mph SW1.8 kmh SW 2.7 mph4.3 kmh 29.52 in999.7 mb 0.00 in0.0 mm 0.00 in0.0 mm 0.11 in2.8 mm
05:24 PM 46.0°F7.8°C 31.6°F-0.2°C 57% 1.1 mph SW1.8 kmh SW 2.7 mph4.3 kmh 29.52 in999.7 mb 0.00 in0.0 mm 0.00 in0.0 mm 0.11 in2.8 mm
05:25 PM 46.0°F7.8°C 31.6°F-0.2°C 57% 1.7 mph W2.7 kmh W 2.7 mph4.3 kmh 29.52 in999.7 mb 0.00 in0.0 mm 0.00 in0.0 mm 0.11 in2.8 mm
05:26 PM 46.0°F7.8°C 31.6°F-0.2°C 57% 1.7 mph SSE2.7 kmh SSE 1.7 mph2.7 kmh 29.52 in999.7 mb 0.00 in0.0 mm 0.00 in0.0 mm 0.11 in2.8 mm
05:27 PM 46.0°F7.8°C 31.6°F-0.2°C 57% 1.7 mph SSE2.7 kmh SSE 1.7 mph2.7 kmh 29.52 in999.7 mb 0.00 in0.0 mm 0.00 in0.0 mm 0.11 in2.8 mm
05:28 PM 46.0°F7.8°C 31.6°F-0.2°C 57% 1.7 mph SSW2.7 kmh SSW 2.2 mph3.5 kmh 29.52 in999.7 mb 0.00 in0.0 mm 0.00 in0.0 mm 0.11 in2.8 mm
05:29 PM 45.9°F7.7°C 31.5°F-0.3°C 57% Calm Calm 2.2 mph3.5 kmh 29.52 in999.7 mb 0.00 in0.0 mm 0.00 in0.0 mm 0.11 in2.8 mm
05:30 PM 45.7°F7.6°C 31.4°F-0.3°C 57% Calm Calm 2.2 mph3.5 kmh 29.52 in999.7 mb 0.00 in0.0 mm 0.00 in0.0 mm 0.11 in2.8 mm
05:31 PM 45.7°F7.6°C 31.4°F-0.3°C 57% Calm Calm 2.2 mph3.5 kmh 29.52 in999.7 mb 0.00 in0.0 mm 0.00 in0.0 mm 0.11 in2.8 mm
05:32 PM 45.5°F7.5°C 31.2°F-0.4°C 57% 2.2 mph SW3.5 kmh SW 2.2 mph3.5 kmh 29.52 in999.7 mb 0.00 in0.0 mm 0.00 in0.0 mm 0.11 in2.8 mm
05:33 PM 45.5°F7.5°C 31.2°F-0.4°C 57% 2.2 mph S3.5 kmh S 2.2 mph3.5 kmh 29.52 in999.7 mb 0.00 in0.0 mm 0.00 in0.0 mm 0.11 in2.8 mm
05:34 PM 45.5°F7.5°C 31.2°F-0.4°C 57% 1.7 mph SW2.7 kmh SW 2.2 mph3.5 kmh 29.52 in999.7 mb 0.00 in0.0 mm 0.00 in0.0 mm 0.11 in2.8 mm
05:35 PM 45.5°F7.5°C 31.2°F-0.4°C 57% 1.1 mph SW1.8 kmh SW 2.2 mph3.5 kmh 29.52 in999.7 mb 0.00 in0.0 mm 0.00 in0.0 mm 0.11 in2.8 mm
05:36 PM 45.5°F7.5°C 31.2°F-0.4°C 57% 1.7 mph S2.7 kmh S 2.2 mph3.5 kmh 29.52 in999.7 mb 0.00 in0.0 mm 0.00 in0.0 mm 0.11 in2.8 mm
05:37 PM 45.5°F7.5°C 31.6°F-0.2°C 58% 2.2 mph W3.5 kmh W 2.2 mph3.5 kmh 29.52 in999.7 mb 0.00 in0.0 mm 0.00 in0.0 mm 0.11 in2.8 mm
05:38 PM 45.5°F7.5°C 31.6°F-0.2°C 58% 1.7 mph SSW2.7 kmh SSW 2.2 mph3.5 kmh 29.52 in999.7 mb 0.00 in0.0 mm 0.00 in0.0 mm 0.11 in2.8 mm
05:39 PM 45.5°F7.5°C 31.6°F-0.2°C 58% 1.7 mph W2.7 kmh W 2.2 mph3.5 kmh 29.52 in999.7 mb 0.00 in0.0 mm 0.00 in0.0 mm 0.11 in2.8 mm
05:40 PM 45.5°F7.5°C 30.7°F-0.7°C 56% 1.7 mph NW2.7 kmh NW 4.2 mph6.8 kmh 29.52 in999.7 mb 0.00 in0.0 mm 0.00 in0.0 mm 0.11 in2.8 mm
05:41 PM 45.5°F7.5°C 31.2°F-0.4°C 57% 1.7 mph S2.7 kmh S 4.2 mph6.8 kmh 29.52 in999.7 mb 0.00 in0.0 mm 0.00 in0.0 mm 0.11 in2.8 mm
05:42 PM 45.5°F7.5°C 31.2°F-0.4°C 57% 1.1 mph WSW1.8 kmh WSW 4.2 mph6.8 kmh 29.52 in999.7 mb 0.00 in0.0 mm 0.00 in0.0 mm 0.11 in2.8 mm
05:43 PM 45.5°F7.5°C 31.2°F-0.4°C 57% 1.7 mph WSW2.7 kmh WSW 4.2 mph6.8 kmh 29.52 in999.7 mb 0.00 in0.0 mm 0.00 in0.0 mm 0.11 in2.8 mm
05:44 PM 45.5°F7.5°C 31.2°F-0.4°C 57% 1.7 mph S2.7 kmh S 4.2 mph6.8 kmh 29.52 in999.7 mb 0.00 in0.0 mm 0.00 in0.0 mm 0.11 in2.8 mm
05:45 PM 45.5°F7.5°C 31.2°F-0.4°C 57% 2.2 mph SSW3.5 kmh SSW 4.2 mph6.8 kmh 29.52 in999.7 mb 0.00 in0.0 mm 0.00 in0.0 mm 0.11 in2.8 mm
05:46 PM 45.5°F7.5°C 31.6°F-0.2°C 58% Calm Calm 4.2 mph6.8 kmh 29.52 in999.7 mb 0.00 in0.0 mm 0.00 in0.0 mm 0.11 in2.8 mm
05:47 PM 45.5°F7.5°C 31.2°F-0.4°C 57% 1.7 mph SSW2.7 kmh SSW 4.2 mph6.8 kmh 29.52 in999.7 mb 0.00 in0.0 mm 0.00 in0.0 mm 0.11 in2.8 mm
05:48 PM 45.5°F7.5°C 31.2°F-0.4°C 57% 1.7 mph S2.7 kmh S 4.2 mph6.8 kmh 29.52 in999.7 mb 0.00 in0.0 mm 0.00 in0.0 mm 0.11 in2.8 mm
05:49 PM 45.5°F7.5°C 31.2°F-0.4°C 57% 1.7 mph SSW2.7 kmh SSW 4.2 mph6.8 kmh 29.52 in999.7 mb 0.00 in0.0 mm 0.00 in0.0 mm 0.11 in2.8 mm
05:50 PM 45.5°F7.5°C 31.6°F-0.2°C 58% 1.7 mph SSW2.7 kmh SSW 2.2 mph3.5 kmh 29.52 in999.7 mb 0.00 in0.0 mm 0.00 in0.0 mm 0.11 in2.8 mm
05:51 PM 45.5°F7.5°C 31.6°F-0.2°C 58% 1.1 mph S1.8 kmh S 2.2 mph3.5 kmh 29.52 in999.7 mb 0.00 in0.0 mm 0.00 in0.0 mm 0.11 in2.8 mm
05:52 PM 45.7°F7.6°C 31.8°F-0.1°C 58% 1.7 mph S2.7 kmh S 2.2 mph3.5 kmh 29.52 in999.7 mb 0.00 in0.0 mm 0.00 in0.0 mm 0.11 in2.8 mm
05:53 PM 45.7°F7.6°C 31.8°F-0.1°C 58% 1.1 mph SSW1.8 kmh SSW 2.2 mph3.5 kmh 29.52 in999.7 mb 0.00 in0.0 mm 0.00 in0.0 mm 0.11 in2.8 mm
05:54 PM 45.7°F7.6°C 31.8°F-0.1°C 58% 1.7 mph SSW2.7 kmh SSW 2.2 mph3.5 kmh 29.52 in999.7 mb 0.00 in0.0 mm 0.00 in0.0 mm 0.11 in2.8 mm
05:55 PM 45.7°F7.6°C 31.8°F-0.1°C 58% 1.7 mph SW2.7 kmh SW 2.2 mph3.5 kmh 29.52 in999.7 mb 0.00 in0.0 mm 0.00 in0.0 mm 0.11 in2.8 mm
05:56 PM 45.7°F7.6°C 31.8°F-0.1°C 58% 1.1 mph SSW1.8 kmh SSW 2.2 mph3.5 kmh 29.52 in999.7 mb 0.00 in0.0 mm 0.00 in0.0 mm 0.11 in2.8 mm
05:57 PM 45.9°F7.7°C 32.0°F0.0°C 58% Calm Calm 2.2 mph3.5 kmh 29.52 in999.7 mb 0.00 in0.0 mm 0.00 in0.0 mm 0.11 in2.8 mm
05:58 PM 45.9°F7.7°C 32.0°F0.0°C 58% Calm Calm 2.2 mph3.5 kmh 29.53 in1000.0 mb 0.00 in0.0 mm 0.00 in0.0 mm 0.11 in2.8 mm
05:59 PM 45.9°F7.7°C 32.0°F0.0°C 58% Calm Calm 2.2 mph3.5 kmh 29.53 in1000.0 mb 0.00 in0.0 mm 0.00 in0.0 mm 0.11 in2.8 mm
06:00 PM 45.9°F7.7°C 32.4°F0.2°C 59% 1.1 mph SSW1.8 kmh SSW 1.7 mph2.7 kmh 29.53 in1000.0 mb 0.00 in0.0 mm 0.00 in0.0 mm 0.11 in2.8 mm
06:01 PM 45.9°F7.7°C 32.4°F0.2°C 59% Calm Calm 1.7 mph2.7 kmh 29.53 in1000.0 mb 0.00 in0.0 mm 0.00 in0.0 mm 0.11 in2.8 mm
06:02 PM 45.9°F7.7°C 32.4°F0.2°C 59% 1.1 mph SSW1.8 kmh SSW 1.7 mph2.7 kmh 29.53 in1000.0 mb 0.00 in0.0 mm 0.00 in0.0 mm 0.11 in2.8 mm
06:03 PM 45.9°F7.7°C 32.0°F0.0°C 58% 1.7 mph SSW2.7 kmh SSW 1.7 mph2.7 kmh 29.53 in1000.0 mb 0.00 in0.0 mm 0.00 in0.0 mm 0.11 in2.8 mm
06:04 PM 45.9°F7.7°C 32.0°F0.0°C 58% 1.1 mph S1.8 kmh S 2.2 mph3.5 kmh 29.53 in1000.0 mb 0.00 in0.0 mm 0.00 in0.0 mm 0.11 in2.8 mm
06:05 PM 45.9°F7.7°C 32.0°F0.0°C 58% 1.7 mph SW2.7 kmh SW 2.2 mph3.5 kmh 29.53 in1000.0 mb 0.00 in0.0 mm 0.00 in0.0 mm 0.11 in2.8 mm
06:06 PM 45.9°F7.7°C 32.0°F0.0°C 58% 1.1 mph SW1.8 kmh SW 2.2 mph3.5 kmh 29.53 in1000.0 mb 0.00 in0.0 mm 0.00 in0.0 mm 0.11 in2.8 mm
06:07 PM 45.9°F7.7°C 32.0°F0.0°C 58% 1.1 mph SSW1.8 kmh SSW 2.2 mph3.5 kmh 29.53 in1000.0 mb 0.00 in0.0 mm 0.00 in0.0 mm 0.11 in2.8 mm
06:08 PM 45.9°F7.7°C 32.0°F0.0°C 58% 1.1 mph SSW1.8 kmh SSW 2.2 mph3.5 kmh 29.53 in1000.0 mb 0.00 in0.0 mm 0.00 in0.0 mm 0.11 in2.8 mm
06:09 PM 45.9°F7.7°C 32.0°F0.0°C 58% 1.1 mph SW1.8 kmh SW 2.2 mph3.5 kmh 29.53 in1000.0 mb 0.00 in0.0 mm 0.00 in0.0 mm 0.11 in2.8 mm
06:10 PM 45.9°F7.7°C 32.0°F0.0°C 58% Calm Calm 2.2 mph3.5 kmh 29.53 in1000.0 mb 0.00 in0.0 mm 0.00 in0.0 mm 0.11 in2.8 mm
06:11 PM 45.9°F7.7°C 32.0°F0.0°C 58% 1.1 mph SW1.8 kmh SW 2.2 mph3.5 kmh 29.53 in1000.0 mb 0.00 in0.0 mm 0.00 in0.0 mm 0.11 in2.8 mm
06:12 PM 45.7°F7.6°C 31.8°F-0.1°C 58% 1.1 mph SSW1.8 kmh SSW 2.2 mph3.5 kmh 29.53 in1000.0 mb 0.00 in0.0 mm 0.00 in0.0 mm 0.11 in2.8 mm
06:13 PM 45.7°F7.6°C 31.8°F-0.1°C 58% 1.7 mph NNW2.7 kmh NNW 2.2 mph3.5 kmh 29.53 in1000.0 mb 0.00 in0.0 mm 0.00 in0.0 mm 0.11 in2.8 mm
06:14 PM 45.7°F7.6°C 31.8°F-0.1°C 58% Calm Calm 1.7 mph2.7 kmh 29.53 in1000.0 mb 0.00 in0.0 mm 0.00 in0.0 mm 0.11 in2.8 mm
06:15 PM 45.7°F7.6°C 31.8°F-0.1°C 58% 1.7 mph SSW2.7 kmh SSW 1.7 mph2.7 kmh 29.53 in1000.0 mb 0.00 in0.0 mm 0.00 in0.0 mm 0.11 in2.8 mm
06:16 PM 45.7°F7.6°C 31.8°F-0.1°C 58% Calm Calm 1.7 mph2.7 kmh 29.53 in1000.0 mb 0.00 in0.0 mm 0.00 in0.0 mm 0.11 in2.8 mm
06:17 PM 45.7°F7.6°C 31.8°F-0.1°C 58% Calm Calm 1.7 mph2.7 kmh 29.53 in1000.0 mb 0.00 in0.0 mm 0.00 in0.0 mm 0.11 in2.8 mm
06:18 PM 45.7°F7.6°C 31.8°F-0.1°C 58% Calm Calm 1.7 mph2.7 kmh 29.53 in1000.0 mb 0.00 in0.0 mm 0.00 in0.0 mm 0.11 in2.8 mm
06:19 PM 45.7°F7.6°C 31.8°F-0.1°C 58% Calm Calm 1.7 mph2.7 kmh 29.53 in1000.0 mb 0.00 in0.0 mm 0.00 in0.0 mm 0.11 in2.8 mm
06:20 PM 45.7°F7.6°C 31.8°F-0.1°C 58% Calm Calm 1.7 mph2.7 kmh 29.53 in1000.0 mb 0.00 in0.0 mm 0.00 in0.0 mm 0.11 in2.8 mm
06:21 PM 45.7°F7.6°C 32.2°F0.1°C 59% Calm Calm 1.7 mph2.7 kmh 29.53 in1000.0 mb 0.00 in0.0 mm 0.00 in0.0 mm 0.11 in2.8 mm
06:22 PM 45.9°F7.7°C 32.4°F0.2°C 59% Calm Calm 1.7 mph2.7 kmh 29.54 in1000.3 mb 0.00 in0.0 mm 0.00 in0.0 mm 0.11 in2.8 mm
06:23 PM 45.9°F7.7°C 32.4°F0.2°C 59% Calm Calm 1.7 mph2.7 kmh 29.54 in1000.3 mb 0.00 in0.0 mm 0.00 in0.0 mm 0.11 in2.8 mm
06:24 PM 45.9°F7.7°C 32.4°F0.2°C 59% Calm Calm 1.7 mph2.7 kmh 29.54 in1000.3 mb 0.00 in0.0 mm 0.00 in0.0 mm 0.11 in2.8 mm
06:25 PM 45.9°F7.7°C 32.4°F0.2°C 59% Calm Calm 1.7 mph2.7 kmh 29.54 in1000.3 mb 0.00 in0.0 mm 0.00 in0.0 mm 0.11 in2.8 mm
06:26 PM 45.9°F7.7°C 32.4°F0.2°C 59% Calm Calm -- 29.54 in1000.3 mb 0.00 in0.0 mm 0.00 in0.0 mm 0.11 in2.8 mm
06:27 PM 45.9°F7.7°C 32.4°F0.2°C 59% Calm Calm -- 29.54 in1000.3 mb 0.00 in0.0 mm 0.00 in0.0 mm 0.11 in2.8 mm
06:28 PM 45.9°F7.7°C 32.4°F0.2°C 59% Calm Calm -- 29.54 in1000.3 mb 0.00 in0.0 mm 0.00 in0.0 mm 0.11 in2.8 mm
06:29 PM 45.9°F7.7°C 32.4°F0.2°C 59% Calm Calm -- 29.54 in1000.3 mb 0.00 in0.0 mm 0.00 in0.0 mm 0.11 in2.8 mm
06:30 PM 45.9°F7.7°C 32.8°F0.4°C 60% Calm Calm -- 29.54 in1000.3 mb 0.00 in0.0 mm 0.00 in0.0 mm 0.11 in2.8 mm
06:31 PM 45.9°F7.7°C 32.8°F0.4°C 60% Calm Calm -- 29.54 in1000.3 mb 0.00 in0.0 mm 0.00 in0.0 mm 0.11 in2.8 mm
06:32 PM 45.9°F7.7°C 32.8°F0.4°C 60% Calm Calm -- 29.54 in1000.3 mb 0.00 in0.0 mm 0.00 in0.0 mm 0.11 in2.8 mm
06:33 PM 45.9°F7.7°C 32.8°F0.4°C 60% Calm Calm -- 29.54 in1000.3 mb 0.00 in0.0 mm 0.00 in0.0 mm 0.11 in2.8 mm
06:34 PM 45.9°F7.7°C 32.8°F0.4°C 60% Calm Calm -- 29.54 in1000.3 mb 0.00 in0.0 mm 0.00 in0.0 mm 0.11 in2.8 mm
06:35 PM 45.9°F7.7°C 32.8°F0.4°C 60% Calm Calm -- 29.54 in1000.3 mb 0.00 in0.0 mm 0.00 in0.0 mm 0.11 in2.8 mm
06:36 PM 45.9°F7.7°C 32.8°F0.4°C 60% Calm Calm -- 29.54 in1000.3 mb 0.00 in0.0 mm 0.00 in0.0 mm 0.11 in2.8 mm
06:37 PM 45.9°F7.7°C 32.8°F0.4°C 60% Calm Calm -- 29.54 in1000.3 mb 0.00 in0.0 mm 0.00 in0.0 mm 0.11 in2.8 mm
06:38 PM 45.9°F7.7°C 32.8°F0.4°C 60% Calm Calm -- 29.54 in1000.3 mb 0.00 in0.0 mm 0.00 in0.0 mm 0.11 in2.8 mm
06:39 PM 45.9°F7.7°C 32.8°F0.4°C 60% Calm Calm -- 29.54 in1000.3 mb 0.00 in0.0 mm 0.00 in0.0 mm 0.11 in2.8 mm
06:40 PM 45.9°F7.7°C 32.8°F0.4°C 60% Calm Calm -- 29.54 in1000.3 mb 0.00 in0.0 mm 0.00 in0.0 mm 0.11 in2.8 mm
06:41 PM 45.9°F7.7°C 32.8°F0.4°C 60% Calm Calm -- 29.54 in1000.3 mb 0.00 in0.0 mm 0.00 in0.0 mm 0.11 in2.8 mm
06:42 PM 45.9°F7.7°C 32.8°F0.4°C 60% Calm Calm -- 29.54 in1000.3 mb 0.00 in0.0 mm 0.00 in0.0 mm 0.11 in2.8 mm
06:43 PM 45.9°F7.7°C 32.8°F0.4°C 60% 1.7 mph S2.7 kmh S 1.7 mph2.7 kmh 29.54 in1000.3 mb 0.00 in0.0 mm 0.00 in0.0 mm 0.11 in2.8 mm
06:44 PM 45.9°F7.7°C 32.8°F0.4°C 60% 2.2 mph WNW3.5 kmh WNW 2.2 mph3.5 kmh 29.54 in1000.3 mb 0.00 in0.0 mm 0.00 in0.0 mm 0.11 in2.8 mm
06:45 PM 45.9°F7.7°C 32.8°F0.4°C 60% 1.7 mph SSW2.7 kmh SSW 2.7 mph4.3 kmh 29.54 in1000.3 mb 0.00 in0.0 mm 0.00 in0.0 mm 0.11 in2.8 mm
06:46 PM 45.9°F7.7°C 32.4°F0.2°C 59% 1.1 mph SW1.8 kmh SW 2.7 mph4.3 kmh 29.54 in1000.3 mb 0.00 in0.0 mm 0.00 in0.0 mm 0.11 in2.8 mm
06:47 PM 45.9°F7.7°C 32.4°F0.2°C 59% 1.1 mph WSW1.8 kmh WSW 2.7 mph4.3 kmh 29.54 in1000.3 mb 0.00 in0.0 mm 0.00 in0.0 mm 0.11 in2.8 mm
06:48 PM 45.9°F7.7°C 32.4°F0.2°C 59% 1.1 mph SSW1.8 kmh SSW 2.7 mph4.3 kmh 29.54 in1000.3 mb 0.00 in0.0 mm 0.00 in0.0 mm 0.11 in2.8 mm
06:49 PM 45.9°F7.7°C 32.4°F0.2°C 59% Calm Calm 2.7 mph4.3 kmh 29.54 in1000.3 mb 0.00 in0.0 mm 0.00 in0.0 mm 0.11 in2.8 mm
06:50 PM 45.9°F7.7°C 32.4°F0.2°C 59% 1.7 mph S2.7 kmh S 2.7 mph4.3 kmh 29.54 in1000.3 mb 0.00 in0.0 mm 0.00 in0.0 mm 0.11 in2.8 mm
06:51 PM 45.9°F7.7°C 32.4°F0.2°C 59% 1.1 mph SSW1.8 kmh SSW 2.7 mph4.3 kmh 29.54 in1000.3 mb 0.00 in0.0 mm 0.00 in0.0 mm 0.11 in2.8 mm
06:52 PM 45.9°F7.7°C 32.4°F0.2°C 59% Calm Calm 2.7 mph4.3 kmh 29.54 in1000.3 mb 0.00 in0.0 mm 0.00 in0.0 mm 0.11 in2.8 mm
06:53 PM 45.9°F7.7°C 32.4°F0.2°C 59% 1.1 mph SSW1.8 kmh SSW 2.7 mph4.3 kmh 29.54 in1000.3 mb 0.00 in0.0 mm 0.00 in0.0 mm 0.11 in2.8 mm
06:54 PM 45.9°F7.7°C 32.4°F0.2°C 59% 1.1 mph SSW1.8 kmh SSW 2.7 mph4.3 kmh 29.54 in1000.3 mb 0.00 in0.0 mm 0.00 in0.0 mm 0.11 in2.8 mm
06:55 PM 45.9°F7.7°C 32.4°F0.2°C 59% Calm Calm 1.7 mph2.7 kmh 29.54 in1000.3 mb 0.00 in0.0 mm 0.00 in0.0 mm 0.11 in2.8 mm
06:56 PM 45.9°F7.7°C 32.4°F0.2°C 59% 1.1 mph SSE1.8 kmh SSE 2.2 mph3.5 kmh 29.54 in1000.3 mb 0.00 in0.0 mm 0.00 in0.0 mm 0.11 in2.8 mm
06:57 PM 45.9°F7.7°C 32.4°F0.2°C 59% 1.1 mph SSW1.8 kmh SSW 2.2 mph3.5 kmh 29.54 in1000.3 mb 0.00 in0.0 mm 0.00 in0.0 mm 0.11 in2.8 mm
06:58 PM 45.9°F7.7°C 32.4°F0.2°C 59% Calm Calm 2.2 mph3.5 kmh 29.54 in1000.3 mb 0.00 in0.0 mm 0.00 in0.0 mm 0.11 in2.8 mm
06:59 PM 45.7°F7.6°C 32.6°F0.3°C 60% Calm Calm 2.2 mph3.5 kmh 29.54 in1000.3 mb 0.00 in0.0 mm 0.00 in0.0 mm 0.11 in2.8 mm
07:00 PM 45.7°F7.6°C 32.6°F0.3°C 60% Calm Calm 2.2 mph3.5 kmh 29.54 in1000.3 mb 0.00 in0.0 mm 0.00 in0.0 mm 0.11 in2.8 mm
07:01 PM 45.7°F7.6°C 32.6°F0.3°C 60% Calm Calm 2.2 mph3.5 kmh 29.54 in1000.3 mb 0.00 in0.0 mm 0.00 in0.0 mm 0.11 in2.8 mm
07:02 PM 45.7°F7.6°C 32.6°F0.3°C 60% Calm Calm 2.2 mph3.5 kmh 29.54 in1000.3 mb 0.00 in0.0 mm 0.00 in0.0 mm 0.11 in2.8 mm
07:03 PM 45.5°F7.5°C 32.8°F0.4°C 61% Calm Calm 2.2 mph3.5 kmh 29.54 in1000.3 mb 0.00 in0.0 mm 0.00 in0.0 mm 0.11 in2.8 mm
07:04 PM 45.5°F7.5°C 32.8°F0.4°C 61% Calm Calm 2.2 mph3.5 kmh 29.54 in1000.3 mb 0.00 in0.0 mm 0.00 in0.0 mm 0.11 in2.8 mm
07:05 PM 45.5°F7.5°C 32.8°F0.4°C 61% Calm Calm 2.2 mph3.5 kmh 29.54 in1000.3 mb 0.00 in0.0 mm 0.00 in0.0 mm 0.11 in2.8 mm
07:06 PM 45.5°F7.5°C 32.8°F0.4°C 61% Calm Calm 1.7 mph2.7 kmh 29.54 in1000.3 mb 0.00 in0.0 mm 0.00 in0.0 mm 0.11 in2.8 mm
07:07 PM 45.5°F7.5°C 32.8°F0.4°C 61% Calm Calm 1.1 mph1.8 kmh 29.54 in1000.3 mb 0.00 in0.0 mm 0.00 in0.0 mm 0.11 in2.8 mm
07:08 PM 45.3°F7.4°C 32.7°F0.4°C 61% Calm Calm -- 29.54 in1000.3 mb 0.00 in0.0 mm 0.00 in0.0 mm 0.11 in2.8 mm
07:09 PM 45.3°F7.4°C 32.7°F0.4°C 61% Calm Calm -- 29.54 in1000.3 mb 0.00 in0.0 mm 0.00 in0.0 mm 0.11 in2.8 mm
07:10 PM 45.3°F7.4°C 32.7°F0.4°C 61% Calm Calm -- 29.54 in1000.3 mb 0.00 in0.0 mm 0.00 in0.0 mm 0.11 in2.8 mm
07:11 PM 45.1°F7.3°C 32.5°F0.3°C 61% Calm Calm -- 29.54 in1000.3 mb 0.00 in0.0 mm 0.00 in0.0 mm 0.11 in2.8 mm
07:12 PM 45.1°F7.3°C 32.5°F0.3°C 61% Calm Calm -- 29.54 in1000.3 mb 0.00 in0.0 mm 0.00 in0.0 mm 0.11 in2.8 mm
07:13 PM 45.1°F7.3°C 32.5°F0.3°C 61% Calm Calm -- 29.54 in1000.3 mb 0.00 in0.0 mm 0.00 in0.0 mm 0.11 in2.8 mm
07:14 PM 45.1°F7.3°C 32.9°F0.5°C 62% Calm Calm -- 29.54 in1000.3 mb 0.00 in0.0 mm 0.00 in0.0 mm 0.11 in2.8 mm
07:15 PM 45.1°F7.3°C 32.9°F0.5°C 62% Calm Calm -- 29.54 in1000.3 mb 0.00 in0.0 mm 0.00 in0.0 mm 0.11 in2.8 mm
07:16 PM 45.1°F7.3°C 32.9°F0.5°C 62% Calm Calm -- 29.54 in1000.3 mb 0.00 in0.0 mm 0.00 in0.0 mm 0.11 in2.8 mm
07:17 PM 45.0°F7.2°C 32.8°F0.4°C 62% Calm Calm -- 29.54 in1000.3 mb 0.00 in0.0 mm 0.00 in0.0 mm 0.11 in2.8 mm
07:18 PM 45.0°F7.2°C 32.8°F0.4°C 62% Calm Calm -- 29.54 in1000.3 mb 0.00 in0.0 mm 0.00 in0.0 mm 0.11 in2.8 mm
07:19 PM 45.0°F7.2°C 32.8°F0.4°C 62% Calm Calm -- 29.54 in1000.3 mb 0.00 in0.0 mm 0.00 in0.0 mm 0.11 in2.8 mm
07:20 PM 45.0°F7.2°C 32.8°F0.4°C 62% Calm Calm -- 29.54 in1000.3 mb 0.00 in0.0 mm 0.00 in0.0 mm 0.11 in2.8 mm
07:21 PM 44.8°F7.1°C 33.0°F0.6°C 63% Calm Calm -- 29.55 in1000.7 mb 0.00 in0.0 mm 0.00 in0.0 mm 0.11 in2.8 mm
07:22 PM 44.8°F7.1°C 33.0°F0.6°C 63% Calm Calm -- 29.55 in1000.7 mb 0.00 in0.0 mm 0.00 in0.0 mm 0.11 in2.8 mm
07:23 PM 44.8°F7.1°C 33.0°F0.6°C 63% Calm Calm -- 29.55 in1000.7 mb 0.00 in0.0 mm 0.00 in0.0 mm 0.11 in2.8 mm
07:24 PM 44.8°F7.1°C 33.0°F0.6°C 63% Calm Calm -- 29.55 in1000.7 mb 0.00 in0.0 mm 0.00 in0.0 mm 0.11 in2.8 mm
07:25 PM 44.6°F7.0°C 32.8°F0.4°C 63% Calm Calm -- 29.55 in1000.7 mb 0.00 in0.0 mm 0.00 in0.0 mm 0.11 in2.8 mm
07:26 PM 44.6°F7.0°C 32.8°F0.4°C 63% Calm Calm -- 29.55 in1000.7 mb 0.00 in0.0 mm 0.00 in0.0 mm 0.11 in2.8 mm
07:27 PM 44.6°F7.0°C 32.8°F0.4°C 63% Calm Calm -- 29.55 in1000.7 mb 0.00 in0.0 mm 0.00 in0.0 mm 0.11 in2.8 mm
07:28 PM 44.4°F6.9°C 32.6°F0.3°C 63% Calm Calm -- 29.55 in1000.7 mb 0.00 in0.0 mm 0.00 in0.0 mm 0.11 in2.8 mm
07:29 PM 44.4°F6.9°C 32.6°F0.3°C 63% Calm Calm -- 29.55 in1000.7 mb 0.00 in0.0 mm 0.00 in0.0 mm 0.11 in2.8 mm
07:30 PM 44.4°F6.9°C 33.0°F0.6°C 64% Calm Calm -- 29.55 in1000.7 mb 0.00 in0.0 mm 0.00 in0.0 mm 0.11 in2.8 mm
07:31 PM 44.4°F6.9°C 33.0°F0.6°C 64% Calm Calm -- 29.55 in1000.7 mb 0.00 in0.0 mm 0.00 in0.0 mm 0.11 in2.8 mm
07:32 PM 44.4°F6.9°C 33.0°F0.6°C 64% Calm Calm -- 29.55 in1000.7 mb 0.00 in0.0 mm 0.00 in0.0 mm 0.11 in2.8 mm
07:33 PM 44.2°F6.8°C 32.8°F0.4°C 64% Calm Calm -- 29.55 in1000.7 mb 0.00 in0.0 mm 0.00 in0.0 mm 0.11 in2.8 mm
07:34 PM 44.2°F6.8°C 32.8°F0.4°C 64% Calm Calm -- 29.55 in1000.7 mb 0.00 in0.0 mm 0.00 in0.0 mm 0.11 in2.8 mm
07:35 PM 44.2°F6.8°C 32.8°F0.4°C 64% Calm Calm 1.1 mph1.8 kmh 29.55 in1000.7 mb 0.00 in0.0 mm 0.00 in0.0 mm 0.11 in2.8 mm
07:36 PM 44.1°F6.7°C 32.7°F0.4°C 64% Calm Calm 1.1 mph1.8 kmh 29.55 in1000.7 mb 0.00 in0.0 mm 0.00 in0.0 mm 0.11 in2.8 mm
07:37 PM 44.1°F6.7°C 32.7°F0.4°C 64% Calm Calm 1.1 mph1.8 kmh 29.55 in1000.7 mb 0.00 in0.0 mm 0.00 in0.0 mm 0.11 in2.8 mm
07:38 PM 44.1°F6.7°C 32.7°F0.4°C 64% Calm Calm 1.1 mph1.8 kmh 29.55 in1000.7 mb 0.00 in0.0 mm 0.00 in0.0 mm 0.11 in2.8 mm
07:39 PM 44.1°F6.7°C 32.7°F0.4°C 64% Calm Calm 1.1 mph1.8 kmh 29.55 in1000.7 mb 0.00 in0.0 mm 0.00 in0.0 mm 0.11 in2.8 mm
07:40 PM 44.1°F6.7°C 32.7°F0.4°C 64% Calm Calm 1.1 mph1.8 kmh 29.55 in1000.7 mb 0.00 in0.0 mm 0.00 in0.0 mm 0.11 in2.8 mm
07:41 PM 44.1°F6.7°C 32.7°F0.4°C 64% Calm Calm 1.1 mph1.8 kmh 29.55 in1000.7 mb 0.00 in0.0 mm 0.00 in0.0 mm 0.11 in2.8 mm
07:42 PM 44.1°F6.7°C 32.7°F0.4°C 64% Calm Calm 1.1 mph1.8 kmh 29.55 in1000.7 mb 0.00 in0.0 mm 0.00 in0.0 mm 0.11 in2.8 mm
07:43 PM 43.9°F6.6°C 32.5°F0.3°C 64% Calm Calm 1.1 mph1.8 kmh 29.55 in1000.7 mb 0.00 in0.0 mm 0.00 in0.0 mm 0.11 in2.8 mm
07:44 PM 43.9°F6.6°C 32.5°F0.3°C 64% Calm Calm 1.1 mph1.8 kmh 29.55 in1000.7 mb 0.00 in0.0 mm 0.00 in0.0 mm 0.11 in2.8 mm
07:45 PM 43.9°F6.6°C 32.5°F0.3°C 64% Calm Calm 1.1 mph1.8 kmh 29.55 in1000.7 mb 0.00 in0.0 mm 0.00 in0.0 mm 0.11 in2.8 mm
07:46 PM 43.9°F6.6°C 32.5°F0.3°C 64% Calm Calm 1.1 mph1.8 kmh 29.55 in1000.7 mb 0.00 in0.0 mm 0.00 in0.0 mm 0.11 in2.8 mm
07:47 PM 43.9°F6.6°C 32.5°F0.3°C 64% Calm Calm 1.1 mph1.8 kmh 29.55 in1000.7 mb 0.00 in0.0 mm 0.00 in0.0 mm 0.11 in2.8 mm
07:48 PM 43.7°F6.5°C 32.3°F0.2°C 64% Calm Calm 1.1 mph1.8 kmh 29.55 in1000.7 mb 0.00 in0.0 mm 0.00 in0.0 mm 0.11 in2.8 mm
07:49 PM 43.7°F6.5°C 32.3°F0.2°C 64% Calm Calm 1.1 mph1.8 kmh 29.55 in1000.7 mb 0.00 in0.0 mm 0.00 in0.0 mm 0.11 in2.8 mm
07:50 PM 43.7°F6.5°C 32.7°F0.4°C 65% Calm Calm 1.1 mph1.8 kmh 29.55 in1000.7 mb 0.00 in0.0 mm 0.00 in0.0 mm 0.11 in2.8 mm
07:51 PM 43.7°F6.5°C 32.7°F0.4°C 65% Calm Calm -- 29.55 in1000.7 mb 0.00 in0.0 mm 0.00 in0.0 mm 0.11 in2.8 mm
07:52 PM 43.7°F6.5°C 32.7°F0.4°C 65% Calm Calm -- 29.55 in1000.7 mb 0.00 in0.0 mm 0.00 in0.0 mm 0.11 in2.8 mm
07:53 PM 43.7°F6.5°C 32.7°F0.4°C 65% Calm Calm -- 29.55 in1000.7 mb 0.00 in0.0 mm 0.00 in0.0 mm 0.11 in2.8 mm
07:54 PM 43.5°F6.4°C 32.5°F0.3°C 65% Calm Calm -- 29.55 in1000.7 mb 0.00 in0.0 mm 0.00 in0.0 mm 0.11 in2.8 mm
07:55 PM 43.5°F6.4°C 32.9°F0.5°C 66% Calm Calm -- 29.55 in1000.7 mb 0.00 in0.0 mm 0.00 in0.0 mm 0.11 in2.8 mm
07:56 PM 43.5°F6.4°C 32.9°F0.5°C 66% Calm Calm -- 29.55 in1000.7 mb 0.00 in0.0 mm 0.00 in0.0 mm 0.11 in2.8 mm
07:57 PM 43.5°F6.4°C 32.9°F0.5°C 66% Calm Calm -- 29.56 in1001.0 mb 0.00 in0.0 mm 0.00 in0.0 mm 0.11 in2.8 mm
07:58 PM 43.5°F6.4°C 32.9°F0.5°C 66% Calm Calm -- 29.56 in1001.0 mb 0.00 in0.0 mm 0.00 in0.0 mm 0.11 in2.8 mm
07:59 PM 43.3°F6.3°C 33.1°F0.6°C 67% Calm Calm -- 29.56 in1001.0 mb 0.00 in0.0 mm 0.00 in0.0 mm 0.11 in2.8 mm
08:00 PM 43.3°F6.3°C 33.1°F0.6°C 67% Calm Calm -- 29.56 in1001.0 mb 0.00 in0.0 mm 0.00 in0.0 mm 0.11 in2.8 mm
08:01 PM 43.3°F6.3°C 33.1°F0.6°C 67% Calm Calm -- 29.56 in1001.0 mb 0.00 in0.0 mm 0.00 in0.0 mm 0.11 in2.8 mm
08:02 PM 43.3°F6.3°C 33.1°F0.6°C 67% Calm Calm -- 29.56 in1001.0 mb 0.00 in0.0 mm 0.00 in0.0 mm 0.11 in2.8 mm
08:03 PM 43.2°F6.2°C 33.0°F0.6°C 67% Calm Calm -- 29.56 in1001.0 mb 0.00 in0.0 mm 0.00 in0.0 mm 0.11 in2.8 mm
08:04 PM 43.2°F6.2°C 33.4°F0.8°C 68% Calm Calm -- 29.56 in1001.0 mb 0.00 in0.0 mm 0.00 in0.0 mm 0.11 in2.8 mm
08:05 PM 43.2°F6.2°C 33.4°F0.8°C 68% Calm Calm -- 29.56 in1001.0 mb 0.00 in0.0 mm 0.00 in0.0 mm 0.11 in2.8 mm
08:06 PM 43.0°F6.1°C 33.2°F0.7°C 68% Calm Calm -- 29.56 in1001.0 mb 0.00 in0.0 mm 0.00 in0.0 mm 0.11 in2.8 mm
08:07 PM 43.0°F6.1°C 33.2°F0.7°C 68% Calm Calm -- 29.56 in1001.0 mb 0.00 in0.0 mm 0.00 in0.0 mm 0.11 in2.8 mm
08:08 PM 42.8°F6.0°C 33.3°F0.7°C 69% Calm Calm -- 29.56 in1001.0 mb 0.00 in0.0 mm 0.00 in0.0 mm 0.11 in2.8 mm
08:09 PM 42.8°F6.0°C 33.3°F0.7°C 69% Calm Calm -- 29.56 in1001.0 mb 0.00 in0.0 mm 0.00 in0.0 mm 0.11 in2.8 mm
08:10 PM 42.8°F6.0°C 33.3°F0.7°C 69% Calm Calm -- 29.57 in1001.4 mb 0.00 in0.0 mm 0.00 in0.0 mm 0.11 in2.8 mm
08:11 PM 42.6°F5.9°C 33.2°F0.7°C 69% Calm Calm -- 29.57 in1001.4 mb 0.00 in0.0 mm 0.00 in0.0 mm 0.11 in2.8 mm
08:12 PM 42.6°F5.9°C 33.5°F0.8°C 70% Calm Calm -- 29.57 in1001.4 mb 0.00 in0.0 mm 0.00 in0.0 mm 0.11 in2.8 mm
08:13 PM 42.6°F5.9°C 33.5°F0.8°C 70% Calm Calm -- 29.57 in1001.4 mb 0.00 in0.0 mm 0.00 in0.0 mm 0.11 in2.8 mm
08:14 PM 42.4°F5.8°C 33.3°F0.7°C 70% Calm Calm -- 29.57 in1001.4 mb 0.00 in0.0 mm 0.00 in0.0 mm 0.11 in2.8 mm
08:15 PM 42.4°F5.8°C 33.3°F0.7°C 70% Calm Calm -- 29.57 in1001.4 mb 0.00 in0.0 mm 0.00 in0.0 mm 0.11 in2.8 mm
08:16 PM 42.3°F5.7°C 33.2°F0.7°C 70% Calm Calm -- 29.57 in1001.4 mb 0.00 in0.0 mm 0.00 in0.0 mm 0.11 in2.8 mm
08:17 PM 42.3°F5.7°C 33.2°F0.7°C 70% Calm Calm -- 29.57 in1001.4 mb 0.00 in0.0 mm 0.00 in0.0 mm 0.11 in2.8 mm
08:18 PM 42.3°F5.7°C 33.2°F0.7°C 70% Calm Calm -- 29.57 in1001.4 mb 0.00 in0.0 mm 0.00 in0.0 mm 0.11 in2.8 mm
08:19 PM 42.3°F5.7°C 33.6°F0.9°C 71% Calm Calm -- 29.57 in1001.4 mb 0.00 in0.0 mm 0.00 in0.0 mm 0.11 in2.8 mm
08:20 PM 42.1°F5.6°C 33.4°F0.8°C 71% Calm Calm -- 29.57 in1001.4 mb 0.00 in0.0 mm 0.00 in0.0 mm 0.11 in2.8 mm
08:21 PM 42.1°F5.6°C 33.4°F0.8°C 71% Calm Calm -- 29.57 in1001.4 mb 0.00 in0.0 mm 0.00 in0.0 mm 0.11 in2.8 mm
08:22 PM 42.1°F5.6°C 33.7°F0.9°C 72% Calm Calm -- 29.57 in1001.4 mb 0.00 in0.0 mm 0.00 in0.0 mm 0.11 in2.8 mm
08:23 PM 41.9°F5.5°C 33.5°F0.8°C 72% Calm Calm -- 29.57 in1001.4 mb 0.00 in0.0 mm 0.00 in0.0 mm 0.11 in2.8 mm
08:24 PM 41.9°F5.5°C 33.5°F0.8°C 72% Calm Calm -- 29.57 in1001.4 mb 0.00 in0.0 mm 0.00 in0.0 mm 0.11 in2.8 mm
08:25 PM 41.9°F5.5°C 33.5°F0.8°C 72% Calm Calm -- 29.57 in1001.4 mb 0.00 in0.0 mm 0.00 in0.0 mm 0.11 in2.8 mm
08:26 PM 41.9°F5.5°C 33.5°F0.8°C 72% Calm Calm -- 29.57 in1001.4 mb 0.00 in0.0 mm 0.00 in0.0 mm 0.11 in2.8 mm
08:27 PM 41.7°F5.4°C 33.4°F0.8°C 72% Calm Calm -- 29.57 in1001.4 mb 0.00 in0.0 mm 0.00 in0.0 mm 0.11 in2.8 mm
08:28 PM 41.7°F5.4°C 33.4°F0.8°C 72% Calm Calm -- 29.57 in1001.4 mb 0.00 in0.0 mm 0.00 in0.0 mm 0.11 in2.8 mm
08:29 PM 41.7°F5.4°C 33.4°F0.8°C 72% Calm Calm -- 29.57 in1001.4 mb 0.00 in0.0 mm 0.00 in0.0 mm 0.11 in2.8 mm
08:30 PM 41.5°F5.3°C 33.2°F0.7°C 72% Calm Calm -- 29.57 in1001.4 mb 0.00 in0.0 mm 0.00 in0.0 mm 0.11 in2.8 mm
08:31 PM 41.5°F5.3°C 33.2°F0.7°C 72% Calm Calm -- 29.57 in1001.4 mb 0.00 in0.0 mm 0.00 in0.0 mm 0.11 in2.8 mm
08:32 PM 41.5°F5.3°C 33.5°F0.8°C 73% Calm Calm -- 29.57 in1001.4 mb 0.00 in0.0 mm 0.00 in0.0 mm 0.11 in2.8 mm
08:33 PM 41.5°F5.3°C 33.5°F0.8°C 73% Calm Calm -- 29.57 in1001.4 mb 0.00 in0.0 mm 0.00 in0.0 mm 0.11 in2.8 mm
08:34 PM 41.5°F5.3°C 33.5°F0.8°C 73% Calm Calm -- 29.57 in1001.4 mb 0.00 in0.0 mm 0.00 in0.0 mm 0.11 in2.8 mm
08:35 PM 41.4°F5.2°C 33.4°F0.8°C 73% Calm Calm -- 29.57 in1001.4 mb 0.00 in0.0 mm 0.00 in0.0 mm 0.11 in2.8 mm
08:36 PM 41.4°F5.2°C 33.4°F0.8°C 73% Calm Calm -- 29.57 in1001.4 mb 0.00 in0.0 mm 0.00 in0.0 mm 0.11 in2.8 mm
08:37 PM 41.4°F5.2°C 33.4°F0.8°C 73% Calm Calm -- 29.57 in1001.4 mb 0.00 in0.0 mm 0.00 in0.0 mm 0.11 in2.8 mm
08:38 PM 41.4°F5.2°C 33.4°F0.8°C 73% Calm Calm -- 29.57 in1001.4 mb 0.00 in0.0 mm 0.00 in0.0 mm 0.11 in2.8 mm
08:39 PM 41.4°F5.2°C 33.4°F0.8°C 73% Calm Calm -- 29.57 in1001.4 mb 0.00 in0.0 mm 0.00 in0.0 mm 0.11 in2.8 mm
08:40 PM 41.2°F5.1°C 33.2°F0.7°C 73% Calm Calm -- 29.57 in1001.4 mb 0.00 in0.0 mm 0.00 in0.0 mm 0.11 in2.8 mm
08:41 PM 41.2°F5.1°C 33.2°F0.7°C 73% Calm Calm -- 29.57 in1001.4 mb 0.00 in0.0 mm 0.00 in0.0 mm 0.11 in2.8 mm
08:42 PM 41.2°F5.1°C 33.2°F0.7°C 73% Calm Calm -- 29.57 in1001.4 mb 0.00 in0.0 mm 0.00 in0.0 mm 0.11 in2.8 mm
08:43 PM 41.2°F5.1°C 33.2°F0.7°C 73% Calm Calm -- 29.57 in1001.4 mb 0.00 in0.0 mm 0.00 in0.0 mm 0.11 in2.8 mm
08:44 PM 41.2°F5.1°C 33.2°F0.7°C 73% Calm Calm -- 29.57 in1001.4 mb 0.00 in0.0 mm 0.00 in0.0 mm 0.11 in2.8 mm
08:45 PM 41.0°F5.0°C 33.0°F0.6°C 73% Calm Calm -- 29.57 in1001.4 mb 0.00 in0.0 mm 0.00 in0.0 mm 0.11 in2.8 mm
08:46 PM 41.0°F5.0°C 33.0°F0.6°C 73% Calm Calm -- 29.57 in1001.4 mb 0.00 in0.0 mm 0.00 in0.0 mm 0.11 in2.8 mm
08:47 PM 41.0°F5.0°C 33.0°F0.6°C 73% Calm Calm -- 29.57 in1001.4 mb 0.00 in0.0 mm 0.00 in0.0 mm 0.11 in2.8 mm
08:48 PM 41.0°F5.0°C 33.0°F0.6°C 73% Calm Calm -- 29.57 in1001.4 mb 0.00 in0.0 mm 0.00 in0.0 mm 0.11 in2.8 mm
08:49 PM 41.0°F5.0°C 33.4°F0.8°C 74% Calm Calm -- 29.57 in1001.4 mb 0.00 in0.0 mm 0.00 in0.0 mm 0.11 in2.8 mm
08:50 PM 41.0°F5.0°C 33.4°F0.8°C 74% Calm Calm -- 29.57 in1001.4 mb 0.00 in0.0 mm 0.00 in0.0 mm 0.11 in2.8 mm
08:51 PM 40.8°F4.9°C 33.2°F0.7°C 74% Calm Calm -- 29.57 in1001.4 mb 0.00 in0.0 mm 0.00 in0.0 mm 0.11 in2.8 mm
08:52 PM 40.8°F4.9°C 33.2°F0.7°C 74% Calm Calm -- 29.57 in1001.4 mb 0.00 in0.0 mm 0.00 in0.0 mm 0.11 in2.8 mm
08:53 PM 40.8°F4.9°C 33.2°F0.7°C 74% Calm Calm -- 29.57 in1001.4 mb 0.00 in0.0 mm 0.00 in0.0 mm 0.11 in2.8 mm
08:54 PM 40.8°F4.9°C 33.2°F0.7°C 74% Calm Calm -- 29.57 in1001.4 mb 0.00 in0.0 mm 0.00 in0.0 mm 0.11 in2.8 mm
08:55 PM 40.6°F4.8°C 33.0°F0.6°C 74% Calm Calm -- 29.57 in1001.4 mb 0.00 in0.0 mm 0.00 in0.0 mm 0.11 in2.8 mm
08:56 PM 40.6°F4.8°C 33.0°F0.6°C 74% Calm Calm -- 29.57 in1001.4 mb 0.00 in0.0 mm 0.00 in0.0 mm 0.11 in2.8 mm
08:57 PM 40.6°F4.8°C 33.0°F0.6°C 74% Calm Calm -- 29.57 in1001.4 mb 0.00 in0.0 mm 0.00 in0.0 mm 0.11 in2.8 mm
08:58 PM 40.6°F4.8°C 33.0°F0.6°C 74% Calm Calm -- 29.57 in1001.4 mb 0.00 in0.0 mm 0.00 in0.0 mm 0.11 in2.8 mm
08:59 PM 40.6°F4.8°C 33.0°F0.6°C 74% Calm Calm -- 29.57 in1001.4 mb 0.00 in0.0 mm 0.00 in0.0 mm 0.11 in2.8 mm
09:00 PM 40.6°F4.8°C 33.0°F0.6°C 74% Calm Calm -- 29.57 in1001.4 mb 0.00 in0.0 mm 0.00 in0.0 mm 0.11 in2.8 mm
09:01 PM 40.6°F4.8°C 33.0°F0.6°C 74% Calm Calm -- 29.57 in1001.4 mb 0.00 in0.0 mm 0.00 in0.0 mm 0.11 in2.8 mm
09:02 PM 40.6°F4.8°C 33.0°F0.6°C 74% Calm Calm -- 29.57 in1001.4 mb 0.00 in0.0 mm 0.00 in0.0 mm 0.11 in2.8 mm
09:03 PM 40.6°F4.8°C 33.0°F0.6°C 74% Calm Calm -- 29.57 in1001.4 mb 0.00 in0.0 mm 0.00 in0.0 mm 0.11 in2.8 mm
09:04 PM 40.6°F4.8°C 33.0°F0.6°C 74% Calm Calm -- 29.57 in1001.4 mb 0.00 in0.0 mm 0.00 in0.0 mm 0.11 in2.8 mm
09:05 PM 40.6°F4.8°C 33.0°F0.6°C 74% Calm Calm -- 29.57 in1001.4 mb 0.00 in0.0 mm 0.00 in0.0 mm 0.11 in2.8 mm
09:06 PM 40.6°F4.8°C 33.0°F0.6°C 74% Calm Calm -- 29.57 in1001.4 mb 0.00 in0.0 mm 0.00 in0.0 mm 0.11 in2.8 mm
09:07 PM 40.6°F4.8°C 33.0°F0.6°C 74% Calm Calm -- 29.57 in1001.4 mb 0.00 in0.0 mm 0.00 in0.0 mm 0.11 in2.8 mm
09:08 PM 40.6°F4.8°C 32.6°F0.3°C 73% Calm Calm -- 29.57 in1001.4 mb 0.00 in0.0 mm 0.00 in0.0 mm 0.11 in2.8 mm
09:09 PM 40.5°F4.7°C 32.5°F0.3°C 73% Calm Calm -- 29.57 in1001.4 mb 0.00 in0.0 mm 0.00 in0.0 mm 0.11 in2.8 mm
09:10 PM 40.5°F4.7°C 32.5°F0.3°C 73% Calm Calm -- 29.58 in1001.7 mb 0.00 in0.0 mm 0.00 in0.0 mm 0.11 in2.8 mm
09:11 PM 40.5°F4.7°C 32.5°F0.3°C 73% Calm Calm -- 29.58 in1001.7 mb 0.00 in0.0 mm 0.00 in0.0 mm 0.11 in2.8 mm
09:12 PM 40.5°F4.7°C 32.5°F0.3°C 73% Calm Calm -- 29.58 in1001.7 mb 0.00 in0.0 mm 0.00 in0.0 mm 0.11 in2.8 mm
09:13 PM 40.5°F4.7°C 32.5°F0.3°C 73% Calm Calm -- 29.58 in1001.7 mb 0.00 in0.0 mm 0.00 in0.0 mm 0.11 in2.8 mm
09:14 PM 40.5°F4.7°C 32.5°F0.3°C 73% Calm Calm -- 29.58 in1001.7 mb 0.00 in0.0 mm 0.00 in0.0 mm 0.11 in2.8 mm
09:15 PM 40.5°F4.7°C 32.5°F0.3°C 73% Calm Calm -- 29.58 in1001.7 mb 0.00 in0.0 mm 0.00 in0.0 mm 0.11 in2.8 mm
09:16 PM 40.5°F4.7°C 32.5°F0.3°C 73% Calm Calm -- 29.58 in1001.7 mb 0.00 in0.0 mm 0.00 in0.0 mm 0.11 in2.8 mm
09:17 PM 40.5°F4.7°C 32.5°F0.3°C 73% Calm Calm -- 29.58 in1001.7 mb 0.00 in0.0 mm 0.00 in0.0 mm 0.11 in2.8 mm
09:18 PM 40.5°F4.7°C 32.5°F0.3°C 73% Calm Calm -- 29.58 in1001.7 mb 0.00 in0.0 mm 0.00 in0.0 mm 0.11 in2.8 mm
09:19 PM 40.5°F4.7°C 32.5°F0.3°C 73% Calm Calm -- 29.58 in1001.7 mb 0.00 in0.0 mm 0.00 in0.0 mm 0.11 in2.8 mm
09:20 PM 40.5°F4.7°C 32.5°F0.3°C 73% Calm Calm -- 29.58 in1001.7 mb 0.00 in0.0 mm 0.00 in0.0 mm 0.11 in2.8 mm
09:21 PM 40.5°F4.7°C 32.5°F0.3°C 73% Calm Calm -- 29.58 in1001.7 mb 0.00 in0.0 mm 0.00 in0.0 mm 0.11 in2.8 mm
09:22 PM 40.5°F4.7°C 32.5°F0.3°C 73% Calm Calm -- 29.58 in1001.7 mb 0.00 in0.0 mm 0.00 in0.0 mm 0.11 in2.8 mm
09:23 PM 40.5°F4.7°C 32.5°F0.3°C 73% Calm Calm -- 29.58 in1001.7 mb 0.00 in0.0 mm 0.00 in0.0 mm 0.11 in2.8 mm
09:24 PM 40.5°F4.7°C 32.5°F0.3°C 73% Calm Calm -- 29.58 in1001.7 mb 0.00 in0.0 mm 0.00 in0.0 mm 0.11 in2.8 mm
09:25 PM 40.5°F4.7°C 32.5°F0.3°C 73% Calm Calm -- 29.58 in1001.7 mb 0.00 in0.0 mm 0.00 in0.0 mm 0.11 in2.8 mm
09:26 PM 40.5°F4.7°C 32.5°F0.3°C 73% Calm Calm -- 29.58 in1001.7 mb 0.00 in0.0 mm 0.00 in0.0 mm 0.11 in2.8 mm
09:27 PM 40.3°F4.6°C 32.3°F0.2°C 73% Calm Calm -- 29.58 in1001.7 mb 0.00 in0.0 mm 0.00 in0.0 mm 0.11 in2.8 mm
09:28 PM 40.3°F4.6°C 32.3°F0.2°C 73% Calm Calm -- 29.58 in1001.7 mb 0.00 in0.0 mm 0.00 in0.0 mm 0.11 in2.8 mm
09:29 PM 40.3°F4.6°C 32.3°F0.2°C 73% Calm Calm -- 29.58 in1001.7 mb 0.00 in0.0 mm 0.00 in0.0 mm 0.11 in2.8 mm
09:30 PM 40.3°F4.6°C 32.3°F0.2°C 73% Calm Calm -- 29.58 in1001.7 mb 0.00 in0.0 mm 0.00 in0.0 mm 0.11 in2.8 mm
09:31 PM 40.3°F4.6°C 32.3°F0.2°C 73% Calm Calm -- 29.58 in1001.7 mb 0.00 in0.0 mm 0.00 in0.0 mm 0.11 in2.8 mm
09:32 PM 40.3°F4.6°C 32.3°F0.2°C 73% Calm Calm -- 29.58 in1001.7 mb 0.00 in0.0 mm 0.00 in0.0 mm 0.11 in2.8 mm
09:33 PM 40.3°F4.6°C 32.3°F0.2°C 73% Calm Calm -- 29.59 in1002.0 mb 0.00 in0.0 mm 0.00 in0.0 mm 0.11 in2.8 mm
09:34 PM 40.3°F4.6°C 32.3°F0.2°C 73% Calm Calm -- 29.59 in1002.0 mb 0.00 in0.0 mm 0.00 in0.0 mm 0.11 in2.8 mm
09:35 PM 40.3°F4.6°C 32.3°F0.2°C 73% Calm Calm -- 29.59 in1002.0 mb 0.00 in0.0 mm 0.00 in0.0 mm 0.11 in2.8 mm
09:36 PM 40.3°F4.6°C 32.3°F0.2°C 73% Calm Calm -- 29.59 in1002.0 mb 0.00 in0.0 mm 0.00 in0.0 mm 0.11 in2.8 mm
09:37 PM 40.1°F4.5°C 32.2°F0.1°C 73% Calm Calm -- 29.59 in1002.0 mb 0.00 in0.0 mm 0.00 in0.0 mm 0.11 in2.8 mm
09:38 PM 40.1°F4.5°C 32.2°F0.1°C 73% Calm Calm -- 29.59 in1002.0 mb 0.00 in0.0 mm 0.00 in0.0 mm 0.11 in2.8 mm
09:39 PM 40.1°F4.5°C 32.5°F0.3°C 74% Calm Calm -- 29.59 in1002.0 mb 0.00 in0.0 mm 0.00 in0.0 mm 0.11 in2.8 mm
09:40 PM 40.1°F4.5°C 32.5°F0.3°C 74% Calm Calm -- 29.59 in1002.0 mb 0.00 in0.0 mm 0.00 in0.0 mm 0.11 in2.8 mm
09:41 PM 40.1°F4.5°C 32.5°F0.3°C 74% Calm Calm -- 29.59 in1002.0 mb 0.00 in0.0 mm 0.00 in0.0 mm 0.11 in2.8 mm
09:42 PM 39.9°F4.4°C 32.3°F0.2°C 74% Calm Calm -- 29.59 in1002.0 mb 0.00 in0.0 mm 0.00 in0.0 mm 0.11 in2.8 mm
09:43 PM 39.9°F4.4°C 32.3°F0.2°C 74% Calm Calm -- 29.59 in1002.0 mb 0.00 in0.0 mm 0.00 in0.0 mm 0.11 in2.8 mm
09:44 PM 39.9°F4.4°C 32.3°F0.2°C 74% Calm Calm -- 29.59 in1002.0 mb 0.00 in0.0 mm 0.00 in0.0 mm 0.11 in2.8 mm
09:45 PM 39.9°F4.4°C 32.3°F0.2°C 74% Calm Calm -- 29.59 in1002.0 mb 0.00 in0.0 mm 0.00 in0.0 mm 0.11 in2.8 mm
09:46 PM 39.9°F4.4°C 32.3°F0.2°C 74% Calm Calm -- 29.59 in1002.0 mb 0.00 in0.0 mm 0.00 in0.0 mm 0.11 in2.8 mm
09:47 PM 39.7°F4.3°C 32.1°F0.1°C 74% Calm Calm -- 29.59 in1002.0 mb 0.00 in0.0 mm 0.00 in0.0 mm 0.11 in2.8 mm
09:48 PM 39.7°F4.3°C 32.1°F0.1°C 74% Calm Calm -- 29.59 in1002.0 mb 0.00 in0.0 mm 0.00 in0.0 mm 0.11 in2.8 mm
09:49 PM 39.7°F4.3°C 32.1°F0.1°C 74% Calm Calm -- 29.59 in1002.0 mb 0.00 in0.0 mm 0.00 in0.0 mm 0.11 in2.8 mm
09:50 PM 39.7°F4.3°C 32.1°F0.1°C 74% Calm Calm -- 29.59 in1002.0 mb 0.00 in0.0 mm 0.00 in0.0 mm 0.11 in2.8 mm
09:51 PM 39.7°F4.3°C 32.1°F0.1°C 74% Calm Calm -- 29.59 in1002.0 mb 0.00 in0.0 mm 0.00 in0.0 mm 0.11 in2.8 mm
09:52 PM 39.6°F4.2°C 32.0°F0.0°C 74% Calm Calm -- 29.59 in1002.0 mb 0.00 in0.0 mm 0.00 in0.0 mm 0.11 in2.8 mm
09:53 PM 39.6°F4.2°C 32.0°F0.0°C 74% Calm Calm -- 29.59 in1002.0 mb 0.00 in0.0 mm 0.00 in0.0 mm 0.11 in2.8 mm
09:54 PM 39.6°F4.2°C 32.0°F0.0°C 74% Calm Calm -- 29.59 in1002.0 mb 0.00 in0.0 mm 0.00 in0.0 mm 0.11 in2.8 mm
09:55 PM 39.6°F4.2°C 32.0°F0.0°C 74% Calm Calm -- 29.59 in1002.0 mb 0.00 in0.0 mm 0.00 in0.0 mm 0.11 in2.8 mm
09:56 PM 39.6°F4.2°C 32.3°F0.2°C 75% Calm Calm -- 29.59 in1002.0 mb 0.00 in0.0 mm 0.00 in0.0 mm 0.11 in2.8 mm
09:57 PM 39.6°F4.2°C 32.3°F0.2°C 75% Calm Calm -- 29.59 in1002.0 mb 0.00 in0.0 mm 0.00 in0.0 mm 0.11 in2.8 mm
09:58 PM 39.6°F4.2°C 32.3°F0.2°C 75% Calm Calm -- 29.59 in1002.0 mb 0.00 in0.0 mm 0.00 in0.0 mm 0.11 in2.8 mm
09:59 PM 39.6°F4.2°C 32.3°F0.2°C 75% Calm Calm -- 29.59 in1002.0 mb 0.00 in0.0 mm 0.00 in0.0 mm 0.11 in2.8 mm
10:00 PM 39.6°F4.2°C 32.3°F0.2°C 75% Calm Calm -- 29.59 in1002.0 mb 0.00 in0.0 mm 0.00 in0.0 mm 0.11 in2.8 mm
10:01 PM 39.6°F4.2°C 32.3°F0.2°C 75% Calm Calm -- 29.59 in1002.0 mb 0.00 in0.0 mm 0.00 in0.0 mm 0.11 in2.8 mm
10:02 PM 39.6°F4.2°C 32.3°F0.2°C 75% Calm Calm -- 29.59 in1002.0 mb 0.00 in0.0 mm 0.00 in0.0 mm 0.11 in2.8 mm
10:03 PM 39.4°F4.1°C 32.1°F0.1°C 75% Calm Calm -- 29.59 in1002.0 mb 0.00 in0.0 mm 0.00 in0.0 mm 0.11 in2.8 mm
10:04 PM 39.4°F4.1°C 32.1°F0.1°C 75% Calm Calm -- 29.59 in1002.0 mb 0.00 in0.0 mm 0.00 in0.0 mm 0.11 in2.8 mm
10:05 PM 39.4°F4.1°C 32.1°F0.1°C 75% Calm Calm -- 29.59 in1002.0 mb 0.00 in0.0 mm 0.00 in0.0 mm 0.11 in2.8 mm
10:06 PM 39.4°F4.1°C 32.1°F0.1°C 75% Calm Calm -- 29.59 in1002.0 mb 0.00 in0.0 mm 0.00 in0.0 mm 0.11 in2.8 mm
10:07 PM 39.4°F4.1°C 32.1°F0.1°C 75% Calm Calm -- 29.59 in1002.0 mb 0.00 in0.0 mm 0.00 in0.0 mm 0.11 in2.8 mm
10:08 PM 39.4°F4.1°C 32.1°F0.1°C 75% Calm Calm -- 29.59 in1002.0 mb 0.00 in0.0 mm 0.00 in0.0 mm 0.11 in2.8 mm
10:09 PM 39.4°F4.1°C 32.1°F0.1°C 75% Calm Calm -- 29.59 in1002.0 mb 0.00 in0.0 mm 0.00 in0.0 mm 0.11 in2.8 mm
10:10 PM 39.4°F4.1°C 32.1°F0.1°C 75% Calm Calm -- 29.59 in1002.0 mb 0.00 in0.0 mm 0.00 in0.0 mm 0.11 in2.8 mm
10:11 PM 39.4°F4.1°C 32.1°F0.1°C 75% Calm Calm -- 29.59 in1002.0 mb 0.00 in0.0 mm 0.00 in0.0 mm 0.11 in2.8 mm
10:12 PM 39.2°F4.0°C 32.0°F0.0°C 75% Calm Calm -- 29.59 in1002.0 mb 0.00 in0.0 mm 0.00 in0.0 mm 0.11 in2.8 mm
10:13 PM 39.2°F4.0°C 32.0°F0.0°C 75% Calm Calm -- 29.59 in1002.0 mb 0.00 in0.0 mm 0.00 in0.0 mm 0.11 in2.8 mm
10:14 PM 39.2°F4.0°C 32.0°F0.0°C 75% Calm Calm -- 29.59 in1002.0 mb 0.00 in0.0 mm 0.00 in0.0 mm 0.11 in2.8 mm
10:15 PM 39.2°F4.0°C 32.3°F0.2°C 76% Calm Calm -- 29.59 in1002.0 mb 0.00 in0.0 mm 0.00 in0.0 mm 0.11 in2.8 mm
10:16 PM 39.2°F4.0°C 32.3°F0.2°C 76% Calm Calm -- 29.59 in1002.0 mb 0.00 in0.0 mm 0.00 in0.0 mm 0.11 in2.8 mm
10:17 PM 39.2°F4.0°C 32.3°F0.2°C 76% Calm Calm -- 29.59 in1002.0 mb 0.00 in0.0 mm 0.00 in0.0 mm 0.11 in2.8 mm
10:18 PM 39.2°F4.0°C 32.3°F0.2°C 76% Calm Calm -- 29.59 in1002.0 mb 0.00 in0.0 mm 0.00 in0.0 mm 0.11 in2.8 mm
10:19 PM 39.0°F3.9°C 32.1°F0.1°C 76% Calm Calm -- 29.59 in1002.0 mb 0.00 in0.0 mm 0.00 in0.0 mm 0.11 in2.8 mm
10:20 PM 39.0°F3.9°C 32.1°F0.1°C 76% Calm Calm -- 29.59 in1002.0 mb 0.00 in0.0 mm 0.00 in0.0 mm 0.11 in2.8 mm
10:21 PM 39.0°F3.9°C 32.1°F0.1°C 76% Calm Calm -- 29.59 in1002.0 mb 0.00 in0.0 mm 0.00 in0.0 mm 0.11 in2.8 mm
10:22 PM 39.0°F3.9°C 32.1°F0.1°C 76% Calm Calm -- 29.59 in1002.0 mb 0.00 in0.0 mm 0.00 in0.0 mm 0.11 in2.8 mm
10:23 PM 39.0°F3.9°C 32.1°F0.1°C 76% Calm Calm -- 29.59 in1002.0 mb 0.00 in0.0 mm 0.00 in0.0 mm 0.11 in2.8 mm
10:24 PM 39.0°F3.9°C 32.1°F0.1°C 76% Calm Calm -- 29.59 in1002.0 mb 0.00 in0.0 mm 0.00 in0.0 mm 0.11 in2.8 mm
10:25 PM 39.0°F3.9°C 32.1°F0.1°C 76% Calm Calm -- 29.59 in1002.0 mb 0.00 in0.0 mm 0.00 in0.0 mm 0.11 in2.8 mm
10:26 PM 39.0°F3.9°C 32.1°F0.1°C 76% Calm Calm -- 29.59 in1002.0 mb 0.00 in0.0 mm 0.00 in0.0 mm 0.11 in2.8 mm
10:27 PM 39.0°F3.9°C 32.1°F0.1°C 76% Calm Calm -- 29.59 in1002.0 mb 0.00 in0.0 mm 0.00 in0.0 mm 0.11 in2.8 mm
10:28 PM 39.0°F3.9°C 32.1°F0.1°C 76% Calm Calm -- 29.59 in1002.0 mb 0.00 in0.0 mm 0.00 in0.0 mm 0.11 in2.8 mm
10:29 PM 39.0°F3.9°C 32.1°F0.1°C 76% Calm Calm -- 29.59 in1002.0 mb 0.00 in0.0 mm 0.00 in0.0 mm 0.11 in2.8 mm
10:30 PM 39.0°F3.9°C 32.1°F0.1°C 76% Calm Calm -- 29.59 in1002.0 mb 0.00 in0.0 mm 0.00 in0.0 mm 0.11 in2.8 mm
10:31 PM 39.0°F3.9°C 32.1°F0.1°C 76% Calm Calm -- 29.59 in1002.0 mb 0.00 in0.0 mm 0.00 in0.0 mm 0.11 in2.8 mm
10:32 PM 39.0°F3.9°C 32.1°F0.1°C 76% Calm Calm -- 29.59 in1002.0 mb 0.00 in0.0 mm 0.00 in0.0 mm 0.11 in2.8 mm
10:33 PM 39.0°F3.9°C 32.1°F0.1°C 76% Calm Calm -- 29.59 in1002.0 mb 0.00 in0.0 mm 0.00 in0.0 mm 0.11 in2.8 mm
10:34 PM 39.0°F3.9°C 32.1°F0.1°C 76% Calm Calm -- 29.59 in1002.0 mb 0.00 in0.0 mm 0.00 in0.0 mm 0.11 in2.8 mm
10:35 PM 39.0°F3.9°C 32.1°F0.1°C 76% Calm Calm -- 29.59 in1002.0 mb 0.00 in0.0 mm 0.00 in0.0 mm 0.11 in2.8 mm
10:36 PM 39.0°F3.9°C 32.1°F0.1°C 76% Calm Calm -- 29.59 in1002.0 mb 0.00 in0.0 mm 0.00 in0.0 mm 0.11 in2.8 mm
10:37 PM 39.0°F3.9°C 32.1°F0.1°C 76% Calm Calm -- 29.59 in1002.0 mb 0.00 in0.0 mm 0.00 in0.0 mm 0.11 in2.8 mm
10:38 PM 39.0°F3.9°C 32.1°F0.1°C 76% Calm Calm -- 29.59 in1002.0 mb 0.00 in0.0 mm 0.00 in0.0 mm 0.11 in2.8 mm
10:39 PM 39.0°F3.9°C 32.1°F0.1°C 76% Calm Calm -- 29.59 in1002.0 mb 0.00 in0.0 mm 0.00 in0.0 mm 0.11 in2.8 mm
10:40 PM 39.0°F3.9°C 32.1°F0.1°C 76% Calm Calm -- 29.59 in1002.0 mb 0.00 in0.0 mm 0.00 in0.0 mm 0.11 in2.8 mm
10:41 PM 39.0°F3.9°C 32.1°F0.1°C 76% Calm Calm -- 29.59 in1002.0 mb 0.00 in0.0 mm 0.00 in0.0 mm 0.11 in2.8 mm
10:42 PM 39.0°F3.9°C 32.1°F0.1°C 76% Calm Calm -- 29.59 in1002.0 mb 0.00 in0.0 mm 0.00 in0.0 mm 0.11 in2.8 mm
10:43 PM 39.0°F3.9°C 32.1°F0.1°C 76% Calm Calm -- 29.59 in1002.0 mb 0.00 in0.0 mm 0.00 in0.0 mm 0.11 in2.8 mm
10:44 PM 39.0°F3.9°C 32.1°F0.1°C 76% Calm Calm -- 29.59 in1002.0 mb 0.00 in0.0 mm 0.00 in0.0 mm 0.11 in2.8 mm
10:45 PM 39.0°F3.9°C 32.1°F0.1°C 76% Calm Calm -- 29.59 in1002.0 mb 0.00 in0.0 mm 0.00 in0.0 mm 0.11 in2.8 mm
10:46 PM 39.0°F3.9°C 32.1°F0.1°C 76% 1.1 mph SSW1.8 kmh SSW 1.1 mph1.8 kmh 29.59 in1002.0 mb 0.00 in0.0 mm 0.00 in0.0 mm 0.11 in2.8 mm
10:47 PM 39.0°F3.9°C 32.4°F0.2°C 77% Calm Calm 1.1 mph1.8 kmh 29.59 in1002.0 mb 0.00 in0.0 mm 0.00 in0.0 mm 0.11 in2.8 mm
10:48 PM 38.8°F3.8°C 32.2°F0.1°C 77% Calm Calm 1.1 mph1.8 kmh 29.59 in1002.0 mb 0.00 in0.0 mm 0.00 in0.0 mm 0.11 in2.8 mm
10:49 PM 38.8°F3.8°C 32.2°F0.1°C 77% Calm Calm 1.1 mph1.8 kmh 29.59 in1002.0 mb 0.00 in0.0 mm 0.00 in0.0 mm 0.11 in2.8 mm
10:50 PM 38.8°F3.8°C 32.2°F0.1°C 77% Calm Calm 1.1 mph1.8 kmh 29.59 in1002.0 mb 0.00 in0.0 mm 0.00 in0.0 mm 0.11 in2.8 mm
10:51 PM 38.8°F3.8°C 32.2°F0.1°C 77% Calm Calm 1.1 mph1.8 kmh 29.59 in1002.0 mb 0.00 in0.0 mm 0.00 in0.0 mm 0.11 in2.8 mm
10:52 PM 38.8°F3.8°C 32.2°F0.1°C 77% Calm Calm 1.1 mph1.8 kmh 29.59 in1002.0 mb 0.00 in0.0 mm 0.00 in0.0 mm 0.11 in2.8 mm
10:53 PM 38.8°F3.8°C 32.2°F0.1°C 77% Calm Calm 1.1 mph1.8 kmh 29.59 in1002.0 mb 0.00 in0.0 mm 0.00 in0.0 mm 0.11 in2.8 mm
10:54 PM 38.8°F3.8°C 32.5°F0.3°C 78% Calm Calm 1.1 mph1.8 kmh 29.59 in1002.0 mb 0.00 in0.0 mm 0.00 in0.0 mm 0.11 in2.8 mm
10:55 PM 38.7°F3.7°C 32.4°F0.2°C 78% Calm Calm 1.1 mph1.8 kmh 29.59 in1002.0 mb 0.00 in0.0 mm 0.00 in0.0 mm 0.11 in2.8 mm
10:56 PM 38.7°F3.7°C 32.4°F0.2°C 78% Calm Calm 1.1 mph1.8 kmh 29.59 in1002.0 mb 0.00 in0.0 mm 0.00 in0.0 mm 0.11 in2.8 mm
10:57 PM 38.7°F3.7°C 32.4°F0.2°C 78% Calm Calm -- 29.59 in1002.0 mb 0.00 in0.0 mm 0.00 in0.0 mm 0.11 in2.8 mm
10:58 PM 38.7°F3.7°C 32.4°F0.2°C 78% 1.1 mph SSW1.8 kmh SSW 1.1 mph1.8 kmh 29.60 in1002.4 mb 0.00 in0.0 mm 0.00 in0.0 mm 0.11 in2.8 mm
10:59 PM 38.7°F3.7°C 32.4°F0.2°C 78% Calm Calm 1.1 mph1.8 kmh 29.60 in1002.4 mb 0.00 in0.0 mm 0.00 in0.0 mm 0.11 in2.8 mm
11:00 PM 38.5°F3.6°C 32.2°F0.1°C 78% Calm Calm 1.1 mph1.8 kmh 29.60 in1002.4 mb 0.00 in0.0 mm 0.00 in0.0 mm 0.11 in2.8 mm
11:01 PM 38.5°F3.6°C 32.6°F0.3°C 79% Calm Calm 1.1 mph1.8 kmh 29.60 in1002.4 mb 0.00 in0.0 mm 0.00 in0.0 mm 0.11 in2.8 mm
11:02 PM 38.5°F3.6°C 32.6°F0.3°C 79% Calm Calm 1.1 mph1.8 kmh 29.60 in1002.4 mb 0.00 in0.0 mm 0.00 in0.0 mm 0.11 in2.8 mm
11:03 PM 38.5°F3.6°C 32.6°F0.3°C 79% Calm Calm 1.1 mph1.8 kmh 29.60 in1002.4 mb 0.00 in0.0 mm 0.00 in0.0 mm 0.11 in2.8 mm
11:04 PM 38.5°F3.6°C 32.6°F0.3°C 79% Calm Calm 1.1 mph1.8 kmh 29.60 in1002.4 mb 0.00 in0.0 mm 0.00 in0.0 mm 0.11 in2.8 mm
11:05 PM 38.5°F3.6°C 32.6°F0.3°C 79% Calm Calm 1.1 mph1.8 kmh 29.60 in1002.4 mb 0.00 in0.0 mm 0.00 in0.0 mm 0.11 in2.8 mm
11:06 PM 38.5°F3.6°C 32.6°F0.3°C 79% Calm Calm 1.1 mph1.8 kmh 29.60 in1002.4 mb 0.00 in0.0 mm 0.00 in0.0 mm 0.11 in2.8 mm
11:07 PM 38.3°F3.5°C 32.4°F0.2°C 79% Calm Calm 1.1 mph1.8 kmh 29.60 in1002.4 mb 0.00 in0.0 mm 0.00 in0.0 mm 0.11 in2.8 mm
11:08 PM 38.3°F3.5°C 32.4°F0.2°C 79% Calm Calm 1.1 mph1.8 kmh 29.60 in1002.4 mb 0.00 in0.0 mm 0.00 in0.0 mm 0.11 in2.8 mm
11:09 PM 38.3°F3.5°C 32.4°F0.2°C 79% Calm Calm 1.1 mph1.8 kmh 29.60 in1002.4 mb 0.00 in0.0 mm 0.00 in0.0 mm 0.11 in2.8 mm
11:10 PM 38.3°F3.5°C 32.4°F0.2°C 79% Calm Calm 1.1 mph1.8 kmh 29.60 in1002.4 mb 0.00 in0.0 mm 0.00 in0.0 mm 0.11 in2.8 mm
11:11 PM 38.3°F3.5°C 32.4°F0.2°C 79% Calm Calm 1.1 mph1.8 kmh 29.60 in1002.4 mb 0.00 in0.0 mm 0.00 in0.0 mm 0.11 in2.8 mm
11:12 PM 38.1°F3.4°C 32.2°F0.1°C 79% Calm Calm -- 29.60 in1002.4 mb 0.00 in0.0 mm 0.00 in0.0 mm 0.11 in2.8 mm
11:13 PM 38.1°F3.4°C 32.2°F0.1°C 79% Calm Calm -- 29.60 in1002.4 mb 0.00 in0.0 mm 0.00 in0.0 mm 0.11 in2.8 mm
11:14 PM 38.1°F3.4°C 32.2°F0.1°C 79% Calm Calm -- 29.60 in1002.4 mb 0.00 in0.0 mm 0.00 in0.0 mm 0.11 in2.8 mm
11:15 PM 38.1°F3.4°C 32.5°F0.3°C 80% Calm Calm -- 29.60 in1002.4 mb 0.00 in0.0 mm 0.00 in0.0 mm 0.11 in2.8 mm
11:16 PM 38.1°F3.4°C 32.5°F0.3°C 80% Calm Calm -- 29.60 in1002.4 mb 0.00 in0.0 mm 0.00 in0.0 mm 0.11 in2.8 mm
11:17 PM 37.9°F3.3°C 32.3°F0.2°C 80% Calm Calm -- 29.60 in1002.4 mb 0.00 in0.0 mm 0.00 in0.0 mm 0.11 in2.8 mm
11:18 PM 37.9°F3.3°C 32.3°F0.2°C 80% Calm Calm -- 29.60 in1002.4 mb 0.00 in0.0 mm 0.00 in0.0 mm 0.11 in2.8 mm
11:19 PM 37.9°F3.3°C 32.3°F0.2°C 80% Calm Calm 1.1 mph1.8 kmh 29.60 in1002.4 mb 0.00 in0.0 mm 0.00 in0.0 mm 0.11 in2.8 mm
11:20 PM 37.9°F3.3°C 32.3°F0.2°C 80% Calm Calm 1.1 mph1.8 kmh 29.60 in1002.4 mb 0.00 in0.0 mm 0.00 in0.0 mm 0.11 in2.8 mm
11:21 PM 37.9°F3.3°C 32.3°F0.2°C 80% Calm Calm 1.1 mph1.8 kmh 29.60 in1002.4 mb 0.00 in0.0 mm 0.00 in0.0 mm 0.11 in2.8 mm
11:22 PM 37.8°F3.2°C 32.2°F0.1°C 80% 1.1 mph SW1.8 kmh SW 1.1 mph1.8 kmh 29.61 in1002.7 mb 0.00 in0.0 mm 0.00 in0.0 mm 0.11 in2.8 mm
11:23 PM 37.8°F3.2°C 32.5°F0.3°C 81% 1.1 mph SSW1.8 kmh SSW 1.1 mph1.8 kmh 29.61 in1002.7 mb 0.00 in0.0 mm 0.00 in0.0 mm 0.11 in2.8 mm
11:24 PM 37.8°F3.2°C 32.5°F0.3°C 81% 1.1 mph S1.8 kmh S 1.1 mph1.8 kmh 29.61 in1002.7 mb 0.00 in0.0 mm 0.00 in0.0 mm 0.11 in2.8 mm
11:25 PM 37.8°F3.2°C 32.5°F0.3°C 81% Calm Calm 1.1 mph1.8 kmh 29.61 in1002.7 mb 0.00 in0.0 mm 0.00 in0.0 mm 0.11 in2.8 mm
11:26 PM 37.8°F3.2°C 32.5°F0.3°C 81% Calm Calm 1.1 mph1.8 kmh 29.61 in1002.7 mb 0.00 in0.0 mm 0.00 in0.0 mm 0.11 in2.8 mm
11:27 PM 37.8°F3.2°C 32.5°F0.3°C 81% Calm Calm 1.1 mph1.8 kmh 29.61 in1002.7 mb 0.00 in0.0 mm 0.00 in0.0 mm 0.11 in2.8 mm
11:28 PM 37.8°F3.2°C 32.5°F0.3°C 81% Calm Calm 1.1 mph1.8 kmh 29.61 in1002.7 mb 0.00 in0.0 mm 0.00 in0.0 mm 0.11 in2.8 mm
11:29 PM 37.8°F3.2°C 32.5°F0.3°C 81% Calm Calm 1.1 mph1.8 kmh 29.61 in1002.7 mb 0.00 in0.0 mm 0.00 in0.0 mm 0.11 in2.8 mm
11:30 PM 37.6°F3.1°C 32.3°F0.2°C 81% Calm Calm 1.1 mph1.8 kmh 29.61 in1002.7 mb 0.00 in0.0 mm 0.00 in0.0 mm 0.11 in2.8 mm
11:31 PM 37.6°F3.1°C 32.3°F0.2°C 81% Calm Calm 1.1 mph1.8 kmh 29.61 in1002.7 mb 0.00 in0.0 mm 0.00 in0.0 mm 0.11 in2.8 mm
11:32 PM 37.6°F3.1°C 32.3°F0.2°C 81% Calm Calm 1.1 mph1.8 kmh 29.61 in1002.7 mb 0.00 in0.0 mm 0.00 in0.0 mm 0.11 in2.8 mm
11:33 PM 37.6°F3.1°C 32.3°F0.2°C 81% Calm Calm 1.1 mph1.8 kmh 29.60 in1002.4 mb 0.00 in0.0 mm 0.00 in0.0 mm 0.11 in2.8 mm
11:34 PM 37.6°F3.1°C 32.3°F0.2°C 81% Calm Calm 1.1 mph1.8 kmh 29.60 in1002.4 mb 0.00 in0.0 mm 0.00 in0.0 mm 0.11 in2.8 mm
11:35 PM 37.6°F3.1°C 32.3°F0.2°C 81% Calm Calm 1.1 mph1.8 kmh 29.60 in1002.4 mb 0.00 in0.0 mm 0.00 in0.0 mm 0.11 in2.8 mm
11:36 PM 37.6°F3.1°C 32.3°F0.2°C 81% Calm Calm 1.1 mph1.8 kmh 29.60 in1002.4 mb 0.00 in0.0 mm 0.00 in0.0 mm 0.11 in2.8 mm
11:37 PM 37.6°F3.1°C 32.3°F0.2°C 81% Calm Calm 1.1 mph1.8 kmh 29.60 in1002.4 mb 0.00 in0.0 mm 0.00 in0.0 mm 0.11 in2.8 mm
11:38 PM 37.6°F3.1°C 32.6°F0.3°C 82% Calm Calm 1.1 mph1.8 kmh 29.60 in1002.4 mb 0.00 in0.0 mm 0.00 in0.0 mm 0.11 in2.8 mm
11:39 PM 37.6°F3.1°C 32.6°F0.3°C 82% Calm Calm 1.1 mph1.8 kmh 29.60 in1002.4 mb 0.00 in0.0 mm 0.00 in0.0 mm 0.11 in2.8 mm
11:40 PM 37.4°F3.0°C 32.4°F0.2°C 82% Calm Calm 1.1 mph1.8 kmh 29.60 in1002.4 mb 0.00 in0.0 mm 0.00 in0.0 mm 0.11 in2.8 mm
11:41 PM 37.4°F3.0°C 32.4°F0.2°C 82% Calm Calm 1.1 mph1.8 kmh 29.60 in1002.4 mb 0.00 in0.0 mm 0.00 in0.0 mm 0.11 in2.8 mm
11:42 PM 37.4°F3.0°C 32.4°F0.2°C 82% Calm Calm 1.1 mph1.8 kmh 29.60 in1002.4 mb 0.00 in0.0 mm 0.00 in0.0 mm 0.11 in2.8 mm
11:43 PM 37.4°F3.0°C 32.4°F0.2°C 82% Calm Calm 1.1 mph1.8 kmh 29.60 in1002.4 mb 0.00 in0.0 mm 0.00 in0.0 mm 0.11 in2.8 mm
11:44 PM 37.4°F3.0°C 32.4°F0.2°C 82% Calm Calm -- 29.60 in1002.4 mb 0.00 in0.0 mm 0.00 in0.0 mm 0.11 in2.8 mm
11:45 PM 37.2°F2.9°C 32.2°F0.1°C 82% Calm Calm -- 29.61 in1002.7 mb 0.00 in0.0 mm 0.00 in0.0 mm 0.11 in2.8 mm
11:46 PM 37.2°F2.9°C 32.2°F0.1°C 82% Calm Calm -- 29.61 in1002.7 mb 0.00 in0.0 mm 0.00 in0.0 mm 0.11 in2.8 mm
11:47 PM 37.2°F2.9°C 32.2°F0.1°C 82% Calm Calm -- 29.61 in1002.7 mb 0.00 in0.0 mm 0.00 in0.0 mm 0.11 in2.8 mm
11:48 PM 37.2°F2.9°C 32.2°F0.1°C 82% Calm Calm -- 29.61 in1002.7 mb 0.00 in0.0 mm 0.00 in0.0 mm 0.11 in2.8 mm
11:49 PM 37.2°F2.9°C 32.2°F0.1°C 82% Calm Calm -- 29.61 in1002.7 mb 0.00 in0.0 mm 0.00 in0.0 mm 0.11 in2.8 mm
11:50 PM 37.0°F2.8°C 32.0°F0.0°C 82% Calm Calm -- 29.61 in1002.7 mb 0.00 in0.0 mm 0.00 in0.0 mm 0.11 in2.8 mm
11:51 PM 37.0°F2.8°C 32.0°F0.0°C 82% Calm Calm -- 29.61 in1002.7 mb 0.00 in0.0 mm 0.00 in0.0 mm 0.11 in2.8 mm
11:52 PM 37.0°F2.8°C 32.0°F0.0°C 82% Calm Calm -- 29.61 in1002.7 mb 0.00 in0.0 mm 0.00 in0.0 mm 0.11 in2.8 mm
11:53 PM 37.0°F2.8°C 32.0°F0.0°C 82% Calm Calm -- 29.61 in1002.7 mb 0.00 in0.0 mm 0.00 in0.0 mm 0.11 in2.8 mm
11:54 PM 37.0°F2.8°C 32.3°F0.2°C 83% Calm Calm -- 29.61 in1002.7 mb 0.00 in0.0 mm 0.00 in0.0 mm 0.11 in2.8 mm
11:55 PM 36.9°F2.7°C 32.2°F0.1°C 83% 1.1 mph SW1.8 kmh SW 1.1 mph1.8 kmh 29.61 in1002.7 mb 0.00 in0.0 mm 0.00 in0.0 mm 0.11 in2.8 mm
11:56 PM 36.9°F2.7°C 32.2°F0.1°C 83% Calm Calm 1.1 mph1.8 kmh 29.61 in1002.7 mb 0.00 in0.0 mm 0.00 in0.0 mm 0.11 in2.8 mm
11:57 PM 36.9°F2.7°C 32.2°F0.1°C 83% Calm Calm 1.1 mph1.8 kmh 29.60 in1002.4 mb 0.00 in0.0 mm 0.00 in0.0 mm 0.11 in2.8 mm
11:58 PM 36.9°F2.7°C 32.2°F0.1°C 83% Calm Calm 1.1 mph1.8 kmh 29.60 in1002.4 mb 0.00 in0.0 mm 0.00 in0.0 mm 0.11 in2.8 mm
11:59 PM 36.9°F2.7°C 32.2°F0.1°C 83% Calm Calm 1.1 mph1.8 kmh 29.60 in1002.4 mb 0.00 in0.0 mm 0.00 in0.0 mm 0.11 in2.8 mm